<?xml version="1.0" encoding="UTF-8" standalone="no" ?>
<gpx xmlns="http://www.topografix.com/GPX/1/1" xmlns:xsi="http://www.w3.org/2001/XMLSchema-instance" xsi:schemaLocation="http://www.topografix.com/GPX/1/1 http://www.topografix.com/GPX/1/1/gpx.xsd" version="1.1" creator="VisuGPX - https://www.visugpx.com">
  <metadata>
    <name>Belgarde, peyrefite du razes</name>
    <desc><![CDATA[Les paysages du razes avec un circuit de difficulté moyenne, ideal pour une remise en jambe.]]></desc>
  </metadata>
  <trk>
    <name><![CDATA[BELGARDE 47]]></name>
    <trkseg>
      <trkpt lat="43.09532" lon="2.03533">
        <ele>267.86</ele>
        <time>2011-07-20T07:56:34Z</time>
      </trkpt>
      <trkpt lat="43.09511" lon="2.03544">
        <ele>268.35</ele>
        <time>2011-07-20T07:56:58Z</time>
      </trkpt>
      <trkpt lat="43.0951" lon="2.03543">
        <ele>268.35</ele>
        <time>2011-07-20T07:57:01Z</time>
      </trkpt>
      <trkpt lat="43.0952" lon="2.0348">
        <ele>267.86</ele>
        <time>2011-07-20T07:57:13Z</time>
      </trkpt>
      <trkpt lat="43.09547" lon="2.03478">
        <ele>268.35</ele>
        <time>2011-07-20T07:57:19Z</time>
      </trkpt>
      <trkpt lat="43.09586" lon="2.03453">
        <ele>268.83</ele>
        <time>2011-07-20T07:57:25Z</time>
      </trkpt>
      <trkpt lat="43.09543" lon="2.03536">
        <ele>267.38</ele>
        <time>2011-07-20T07:57:34Z</time>
      </trkpt>
      <trkpt lat="43.09519" lon="2.03593">
        <ele>267.86</ele>
        <time>2011-07-20T07:57:44Z</time>
      </trkpt>
      <trkpt lat="43.09519" lon="2.03592">
        <ele>268.35</ele>
        <time>2011-07-20T07:57:54Z</time>
      </trkpt>
      <trkpt lat="43.09561" lon="2.03613">
        <ele>267.86</ele>
        <time>2011-07-20T07:58:02Z</time>
      </trkpt>
      <trkpt lat="43.09574" lon="2.03616">
        <ele>268.35</ele>
        <time>2011-07-20T07:58:10Z</time>
      </trkpt>
      <trkpt lat="43.09576" lon="2.03611">
        <ele>267.38</ele>
        <time>2011-07-20T07:58:12Z</time>
      </trkpt>
      <trkpt lat="43.09577" lon="2.03611">
        <ele>267.86</ele>
        <time>2011-07-20T07:58:13Z</time>
      </trkpt>
      <trkpt lat="43.09579" lon="2.03607">
        <ele>267.38</ele>
        <time>2011-07-20T07:58:14Z</time>
      </trkpt>
      <trkpt lat="43.09584" lon="2.03604">
        <ele>267.38</ele>
        <time>2011-07-20T07:58:15Z</time>
      </trkpt>
      <trkpt lat="43.09585" lon="2.036">
        <ele>267.38</ele>
        <time>2011-07-20T07:58:16Z</time>
      </trkpt>
      <trkpt lat="43.09589" lon="2.03594">
        <ele>267.86</ele>
        <time>2011-07-20T07:58:18Z</time>
      </trkpt>
      <trkpt lat="43.09599" lon="2.03585">
        <ele>267.86</ele>
        <time>2011-07-20T07:58:25Z</time>
      </trkpt>
      <trkpt lat="43.09604" lon="2.03571">
        <ele>268.83</ele>
        <time>2011-07-20T07:58:30Z</time>
      </trkpt>
      <trkpt lat="43.09607" lon="2.03565">
        <ele>268.83</ele>
        <time>2011-07-20T07:58:34Z</time>
      </trkpt>
      <trkpt lat="43.09605" lon="2.03566">
        <ele>268.83</ele>
        <time>2011-07-20T07:58:35Z</time>
      </trkpt>
      <trkpt lat="43.09604" lon="2.03569">
        <ele>268.35</ele>
        <time>2011-07-20T07:58:36Z</time>
      </trkpt>
      <trkpt lat="43.09604" lon="2.03572">
        <ele>268.35</ele>
        <time>2011-07-20T07:58:37Z</time>
      </trkpt>
      <trkpt lat="43.09604" lon="2.03576">
        <ele>268.35</ele>
        <time>2011-07-20T07:58:38Z</time>
      </trkpt>
      <trkpt lat="43.09602" lon="2.03584">
        <ele>268.35</ele>
        <time>2011-07-20T07:58:40Z</time>
      </trkpt>
      <trkpt lat="43.096" lon="2.03587">
        <ele>268.35</ele>
        <time>2011-07-20T07:58:41Z</time>
      </trkpt>
      <trkpt lat="43.09598" lon="2.0359">
        <ele>268.35</ele>
        <time>2011-07-20T07:58:42Z</time>
      </trkpt>
      <trkpt lat="43.09583" lon="2.03606">
        <ele>268.83</ele>
        <time>2011-07-20T07:58:48Z</time>
      </trkpt>
      <trkpt lat="43.09581" lon="2.03605">
        <ele>268.83</ele>
        <time>2011-07-20T07:58:49Z</time>
      </trkpt>
      <trkpt lat="43.09579" lon="2.03605">
        <ele>268.35</ele>
        <time>2011-07-20T07:59:02Z</time>
      </trkpt>
      <trkpt lat="43.09586" lon="2.03605">
        <ele>271.71</ele>
        <time>2011-07-20T08:01:55Z</time>
      </trkpt>
      <trkpt lat="43.09584" lon="2.03607">
        <ele>272.67</ele>
        <time>2011-07-20T08:02:30Z</time>
      </trkpt>
      <trkpt lat="43.09584" lon="2.03608">
        <ele>272.67</ele>
        <time>2011-07-20T08:02:31Z</time>
      </trkpt>
      <trkpt lat="43.09562" lon="2.03637">
        <ele>274.11</ele>
        <time>2011-07-20T08:02:45Z</time>
      </trkpt>
      <trkpt lat="43.09543" lon="2.03651">
        <ele>277.48</ele>
        <time>2011-07-20T08:02:53Z</time>
      </trkpt>
      <trkpt lat="43.09535" lon="2.0366">
        <ele>279.88</ele>
        <time>2011-07-20T08:02:59Z</time>
      </trkpt>
      <trkpt lat="43.09534" lon="2.0366">
        <ele>279.88</ele>
        <time>2011-07-20T08:03:00Z</time>
      </trkpt>
      <trkpt lat="43.09533" lon="2.03659">
        <ele>279.88</ele>
        <time>2011-07-20T08:03:01Z</time>
      </trkpt>
      <trkpt lat="43.09527" lon="2.03654">
        <ele>280.84</ele>
        <time>2011-07-20T08:03:17Z</time>
      </trkpt>
      <trkpt lat="43.09527" lon="2.03652">
        <ele>280.84</ele>
        <time>2011-07-20T08:03:23Z</time>
      </trkpt>
      <trkpt lat="43.09525" lon="2.03651">
        <ele>279.88</ele>
        <time>2011-07-20T08:03:24Z</time>
      </trkpt>
      <trkpt lat="43.09524" lon="2.0365">
        <ele>280.84</ele>
        <time>2011-07-20T08:03:25Z</time>
      </trkpt>
      <trkpt lat="43.09485" lon="2.03638">
        <ele>279.4</ele>
        <time>2011-07-20T08:03:38Z</time>
      </trkpt>
      <trkpt lat="43.09456" lon="2.03621">
        <ele>279.4</ele>
        <time>2011-07-20T08:03:49Z</time>
      </trkpt>
      <trkpt lat="43.09454" lon="2.03608">
        <ele>278.92</ele>
        <time>2011-07-20T08:03:52Z</time>
      </trkpt>
      <trkpt lat="43.0945" lon="2.03607">
        <ele>279.4</ele>
        <time>2011-07-20T08:03:58Z</time>
      </trkpt>
      <trkpt lat="43.09452" lon="2.03614">
        <ele>279.88</ele>
        <time>2011-07-20T08:04:02Z</time>
      </trkpt>
      <trkpt lat="43.09453" lon="2.03631">
        <ele>279.88</ele>
        <time>2011-07-20T08:04:10Z</time>
      </trkpt>
      <trkpt lat="43.0943" lon="2.03649">
        <ele>282.77</ele>
        <time>2011-07-20T08:04:23Z</time>
      </trkpt>
      <trkpt lat="43.09407" lon="2.03662">
        <ele>286.13</ele>
        <time>2011-07-20T08:04:36Z</time>
      </trkpt>
      <trkpt lat="43.09388" lon="2.03669">
        <ele>289.01</ele>
        <time>2011-07-20T08:04:49Z</time>
      </trkpt>
      <trkpt lat="43.09384" lon="2.03671">
        <ele>289.49</ele>
        <time>2011-07-20T08:04:52Z</time>
      </trkpt>
      <trkpt lat="43.09371" lon="2.03673">
        <ele>292.38</ele>
        <time>2011-07-20T08:05:05Z</time>
      </trkpt>
      <trkpt lat="43.09368" lon="2.03674">
        <ele>292.38</ele>
        <time>2011-07-20T08:05:08Z</time>
      </trkpt>
      <trkpt lat="43.09353" lon="2.03682">
        <ele>294.3</ele>
        <time>2011-07-20T08:05:22Z</time>
      </trkpt>
      <trkpt lat="43.09337" lon="2.03707">
        <ele>291.9</ele>
        <time>2011-07-20T08:05:31Z</time>
      </trkpt>
      <trkpt lat="43.09335" lon="2.03712">
        <ele>291.42</ele>
        <time>2011-07-20T08:05:32Z</time>
      </trkpt>
      <trkpt lat="43.09331" lon="2.03716">
        <ele>290.94</ele>
        <time>2011-07-20T08:05:33Z</time>
      </trkpt>
      <trkpt lat="43.09327" lon="2.0372">
        <ele>290.94</ele>
        <time>2011-07-20T08:05:34Z</time>
      </trkpt>
      <trkpt lat="43.09303" lon="2.03739">
        <ele>292.86</ele>
        <time>2011-07-20T08:05:44Z</time>
      </trkpt>
      <trkpt lat="43.09292" lon="2.03745">
        <ele>296.22</ele>
        <time>2011-07-20T08:05:49Z</time>
      </trkpt>
      <trkpt lat="43.09288" lon="2.0375">
        <ele>298.15</ele>
        <time>2011-07-20T08:05:52Z</time>
      </trkpt>
      <trkpt lat="43.09286" lon="2.03752">
        <ele>298.15</ele>
        <time>2011-07-20T08:05:53Z</time>
      </trkpt>
      <trkpt lat="43.09281" lon="2.03758">
        <ele>300.55</ele>
        <time>2011-07-20T08:05:58Z</time>
      </trkpt>
      <trkpt lat="43.09276" lon="2.03768">
        <ele>302.95</ele>
        <time>2011-07-20T08:06:04Z</time>
      </trkpt>
      <trkpt lat="43.09272" lon="2.03787">
        <ele>303.91</ele>
        <time>2011-07-20T08:06:18Z</time>
      </trkpt>
      <trkpt lat="43.09267" lon="2.03789">
        <ele>304.39</ele>
        <time>2011-07-20T08:06:49Z</time>
      </trkpt>
      <trkpt lat="43.09243" lon="2.03807">
        <ele>301.03</ele>
        <time>2011-07-20T08:06:58Z</time>
      </trkpt>
      <trkpt lat="43.09231" lon="2.03817">
        <ele>296.7</ele>
        <time>2011-07-20T08:07:00Z</time>
      </trkpt>
      <trkpt lat="43.09214" lon="2.03832">
        <ele>293.34</ele>
        <time>2011-07-20T08:07:02Z</time>
      </trkpt>
      <trkpt lat="43.09196" lon="2.03848">
        <ele>289.01</ele>
        <time>2011-07-20T08:07:04Z</time>
      </trkpt>
      <trkpt lat="43.09166" lon="2.03876">
        <ele>285.65</ele>
        <time>2011-07-20T08:07:08Z</time>
      </trkpt>
      <trkpt lat="43.09129" lon="2.03917">
        <ele>284.21</ele>
        <time>2011-07-20T08:07:15Z</time>
      </trkpt>
      <trkpt lat="43.09127" lon="2.03923">
        <ele>283.25</ele>
        <time>2011-07-20T08:07:16Z</time>
      </trkpt>
      <trkpt lat="43.09125" lon="2.0393">
        <ele>284.21</ele>
        <time>2011-07-20T08:07:17Z</time>
      </trkpt>
      <trkpt lat="43.09126" lon="2.03936">
        <ele>284.21</ele>
        <time>2011-07-20T08:07:18Z</time>
      </trkpt>
      <trkpt lat="43.09126" lon="2.03941">
        <ele>284.69</ele>
        <time>2011-07-20T08:07:19Z</time>
      </trkpt>
      <trkpt lat="43.09127" lon="2.03945">
        <ele>285.17</ele>
        <time>2011-07-20T08:07:20Z</time>
      </trkpt>
      <trkpt lat="43.09122" lon="2.03968">
        <ele>286.61</ele>
        <time>2011-07-20T08:07:32Z</time>
      </trkpt>
      <trkpt lat="43.09109" lon="2.04003">
        <ele>289.01</ele>
        <time>2011-07-20T08:07:51Z</time>
      </trkpt>
      <trkpt lat="43.09101" lon="2.04026">
        <ele>291.9</ele>
        <time>2011-07-20T08:08:01Z</time>
      </trkpt>
      <trkpt lat="43.09087" lon="2.04051">
        <ele>295.74</ele>
        <time>2011-07-20T08:08:13Z</time>
      </trkpt>
      <trkpt lat="43.09084" lon="2.04056">
        <ele>296.22</ele>
        <time>2011-07-20T08:08:15Z</time>
      </trkpt>
      <trkpt lat="43.09064" lon="2.0408">
        <ele>299.59</ele>
        <time>2011-07-20T08:08:30Z</time>
      </trkpt>
      <trkpt lat="43.09038" lon="2.0411">
        <ele>302.47</ele>
        <time>2011-07-20T08:08:49Z</time>
      </trkpt>
      <trkpt lat="43.0901" lon="2.04142">
        <ele>302.47</ele>
        <time>2011-07-20T08:09:07Z</time>
      </trkpt>
      <trkpt lat="43.0897" lon="2.04188">
        <ele>301.03</ele>
        <time>2011-07-20T08:09:18Z</time>
      </trkpt>
      <trkpt lat="43.08933" lon="2.04228">
        <ele>299.11</ele>
        <time>2011-07-20T08:09:26Z</time>
      </trkpt>
      <trkpt lat="43.08928" lon="2.04231">
        <ele>298.63</ele>
        <time>2011-07-20T08:09:27Z</time>
      </trkpt>
      <trkpt lat="43.08913" lon="2.04236">
        <ele>299.11</ele>
        <time>2011-07-20T08:09:30Z</time>
      </trkpt>
      <trkpt lat="43.08874" lon="2.04244">
        <ele>302.47</ele>
        <time>2011-07-20T08:09:40Z</time>
      </trkpt>
      <trkpt lat="43.08869" lon="2.04245">
        <ele>302.47</ele>
        <time>2011-07-20T08:09:42Z</time>
      </trkpt>
      <trkpt lat="43.08863" lon="2.04243">
        <ele>302.95</ele>
        <time>2011-07-20T08:09:54Z</time>
      </trkpt>
      <trkpt lat="43.08866" lon="2.04243">
        <ele>303.43</ele>
        <time>2011-07-20T08:10:00Z</time>
      </trkpt>
      <trkpt lat="43.0887" lon="2.04243">
        <ele>303.91</ele>
        <time>2011-07-20T08:10:17Z</time>
      </trkpt>
      <trkpt lat="43.08868" lon="2.04243">
        <ele>303.43</ele>
        <time>2011-07-20T08:10:29Z</time>
      </trkpt>
      <trkpt lat="43.08866" lon="2.04244">
        <ele>303.43</ele>
        <time>2011-07-20T08:10:30Z</time>
      </trkpt>
      <trkpt lat="43.08837" lon="2.04244">
        <ele>306.8</ele>
        <time>2011-07-20T08:10:41Z</time>
      </trkpt>
      <trkpt lat="43.08811" lon="2.04235">
        <ele>310.16</ele>
        <time>2011-07-20T08:10:54Z</time>
      </trkpt>
      <trkpt lat="43.08783" lon="2.04227">
        <ele>313.53</ele>
        <time>2011-07-20T08:11:07Z</time>
      </trkpt>
      <trkpt lat="43.08756" lon="2.04225">
        <ele>316.89</ele>
        <time>2011-07-20T08:11:20Z</time>
      </trkpt>
      <trkpt lat="43.08729" lon="2.04224">
        <ele>320.26</ele>
        <time>2011-07-20T08:11:32Z</time>
      </trkpt>
      <trkpt lat="43.08711" lon="2.04222">
        <ele>322.18</ele>
        <time>2011-07-20T08:11:41Z</time>
      </trkpt>
      <trkpt lat="43.08709" lon="2.04222">
        <ele>323.14</ele>
        <time>2011-07-20T08:11:42Z</time>
      </trkpt>
      <trkpt lat="43.08708" lon="2.04221">
        <ele>322.66</ele>
        <time>2011-07-20T08:11:43Z</time>
      </trkpt>
      <trkpt lat="43.08707" lon="2.04218">
        <ele>323.14</ele>
        <time>2011-07-20T08:11:44Z</time>
      </trkpt>
      <trkpt lat="43.08706" lon="2.04217">
        <ele>323.62</ele>
        <time>2011-07-20T08:11:45Z</time>
      </trkpt>
      <trkpt lat="43.08695" lon="2.04202">
        <ele>326.5</ele>
        <time>2011-07-20T08:11:54Z</time>
      </trkpt>
      <trkpt lat="43.08693" lon="2.04201">
        <ele>326.99</ele>
        <time>2011-07-20T08:11:55Z</time>
      </trkpt>
      <trkpt lat="43.08676" lon="2.04189">
        <ele>328.91</ele>
        <time>2011-07-20T08:12:07Z</time>
      </trkpt>
      <trkpt lat="43.08674" lon="2.04189">
        <ele>328.91</ele>
        <time>2011-07-20T08:12:08Z</time>
      </trkpt>
      <trkpt lat="43.08652" lon="2.04185">
        <ele>330.83</ele>
        <time>2011-07-20T08:12:22Z</time>
      </trkpt>
      <trkpt lat="43.08646" lon="2.04193">
        <ele>330.35</ele>
        <time>2011-07-20T08:12:31Z</time>
      </trkpt>
      <trkpt lat="43.08646" lon="2.04195">
        <ele>330.83</ele>
        <time>2011-07-20T08:12:32Z</time>
      </trkpt>
      <trkpt lat="43.08646" lon="2.04198">
        <ele>330.35</ele>
        <time>2011-07-20T08:12:33Z</time>
      </trkpt>
      <trkpt lat="43.08646" lon="2.04201">
        <ele>330.83</ele>
        <time>2011-07-20T08:12:34Z</time>
      </trkpt>
      <trkpt lat="43.08647" lon="2.04202">
        <ele>330.35</ele>
        <time>2011-07-20T08:12:35Z</time>
      </trkpt>
      <trkpt lat="43.08648" lon="2.04201">
        <ele>330.35</ele>
        <time>2011-07-20T08:12:36Z</time>
      </trkpt>
      <trkpt lat="43.08647" lon="2.042">
        <ele>330.35</ele>
        <time>2011-07-20T08:12:37Z</time>
      </trkpt>
      <trkpt lat="43.08645" lon="2.04193">
        <ele>330.83</ele>
        <time>2011-07-20T08:12:42Z</time>
      </trkpt>
      <trkpt lat="43.08645" lon="2.04191">
        <ele>330.35</ele>
        <time>2011-07-20T08:12:43Z</time>
      </trkpt>
      <trkpt lat="43.08646" lon="2.0419">
        <ele>330.35</ele>
        <time>2011-07-20T08:12:44Z</time>
      </trkpt>
      <trkpt lat="43.0865" lon="2.04186">
        <ele>330.83</ele>
        <time>2011-07-20T08:12:48Z</time>
      </trkpt>
      <trkpt lat="43.08651" lon="2.04184">
        <ele>330.35</ele>
        <time>2011-07-20T08:12:49Z</time>
      </trkpt>
      <trkpt lat="43.08651" lon="2.04181">
        <ele>330.83</ele>
        <time>2011-07-20T08:12:50Z</time>
      </trkpt>
      <trkpt lat="43.08648" lon="2.04141">
        <ele>333.23</ele>
        <time>2011-07-20T08:13:08Z</time>
      </trkpt>
      <trkpt lat="43.08645" lon="2.04126">
        <ele>334.2</ele>
        <time>2011-07-20T08:13:16Z</time>
      </trkpt>
      <trkpt lat="43.08648" lon="2.04147">
        <ele>333.23</ele>
        <time>2011-07-20T08:13:23Z</time>
      </trkpt>
      <trkpt lat="43.0865" lon="2.04173">
        <ele>331.31</ele>
        <time>2011-07-20T08:13:27Z</time>
      </trkpt>
      <trkpt lat="43.0865" lon="2.04178">
        <ele>331.31</ele>
        <time>2011-07-20T08:13:28Z</time>
      </trkpt>
      <trkpt lat="43.08648" lon="2.04183">
        <ele>331.31</ele>
        <time>2011-07-20T08:13:29Z</time>
      </trkpt>
      <trkpt lat="43.08646" lon="2.04186">
        <ele>331.79</ele>
        <time>2011-07-20T08:13:30Z</time>
      </trkpt>
      <trkpt lat="43.08643" lon="2.04187">
        <ele>332.27</ele>
        <time>2011-07-20T08:13:31Z</time>
      </trkpt>
      <trkpt lat="43.08642" lon="2.04187">
        <ele>332.27</ele>
        <time>2011-07-20T08:13:32Z</time>
      </trkpt>
      <trkpt lat="43.08625" lon="2.04191">
        <ele>334.68</ele>
        <time>2011-07-20T08:13:43Z</time>
      </trkpt>
      <trkpt lat="43.08624" lon="2.04191">
        <ele>334.68</ele>
        <time>2011-07-20T08:13:44Z</time>
      </trkpt>
      <trkpt lat="43.08619" lon="2.04193">
        <ele>335.16</ele>
        <time>2011-07-20T08:13:47Z</time>
      </trkpt>
      <trkpt lat="43.08615" lon="2.04194">
        <ele>335.16</ele>
        <time>2011-07-20T08:13:50Z</time>
      </trkpt>
      <trkpt lat="43.08588" lon="2.04199">
        <ele>338.52</ele>
        <time>2011-07-20T08:14:09Z</time>
      </trkpt>
      <trkpt lat="43.08568" lon="2.04202">
        <ele>341.89</ele>
        <time>2011-07-20T08:14:23Z</time>
      </trkpt>
      <trkpt lat="43.08546" lon="2.04206">
        <ele>345.25</ele>
        <time>2011-07-20T08:14:37Z</time>
      </trkpt>
      <trkpt lat="43.0852" lon="2.0421">
        <ele>348.62</ele>
        <time>2011-07-20T08:14:55Z</time>
      </trkpt>
      <trkpt lat="43.08491" lon="2.04215">
        <ele>351.98</ele>
        <time>2011-07-20T08:15:15Z</time>
      </trkpt>
      <trkpt lat="43.08461" lon="2.04222">
        <ele>354.86</ele>
        <time>2011-07-20T08:15:36Z</time>
      </trkpt>
      <trkpt lat="43.08439" lon="2.04226">
        <ele>357.75</ele>
        <time>2011-07-20T08:15:53Z</time>
      </trkpt>
      <trkpt lat="43.08419" lon="2.0423">
        <ele>360.15</ele>
        <time>2011-07-20T08:16:10Z</time>
      </trkpt>
      <trkpt lat="43.08399" lon="2.04236">
        <ele>363.04</ele>
        <time>2011-07-20T08:16:24Z</time>
      </trkpt>
      <trkpt lat="43.08382" lon="2.04252">
        <ele>366.4</ele>
        <time>2011-07-20T08:16:37Z</time>
      </trkpt>
      <trkpt lat="43.08365" lon="2.04264">
        <ele>369.28</ele>
        <time>2011-07-20T08:16:52Z</time>
      </trkpt>
      <trkpt lat="43.08351" lon="2.04274">
        <ele>372.65</ele>
        <time>2011-07-20T08:17:07Z</time>
      </trkpt>
      <trkpt lat="43.08334" lon="2.04285">
        <ele>375.53</ele>
        <time>2011-07-20T08:17:23Z</time>
      </trkpt>
      <trkpt lat="43.0831" lon="2.043">
        <ele>378.9</ele>
        <time>2011-07-20T08:17:44Z</time>
      </trkpt>
      <trkpt lat="43.08291" lon="2.0431">
        <ele>382.26</ele>
        <time>2011-07-20T08:18:00Z</time>
      </trkpt>
      <trkpt lat="43.08271" lon="2.04326">
        <ele>385.63</ele>
        <time>2011-07-20T08:18:18Z</time>
      </trkpt>
      <trkpt lat="43.08256" lon="2.04337">
        <ele>388.51</ele>
        <time>2011-07-20T08:18:31Z</time>
      </trkpt>
      <trkpt lat="43.08255" lon="2.04338">
        <ele>388.99</ele>
        <time>2011-07-20T08:18:32Z</time>
      </trkpt>
      <trkpt lat="43.08238" lon="2.04343">
        <ele>392.36</ele>
        <time>2011-07-20T08:18:46Z</time>
      </trkpt>
      <trkpt lat="43.08224" lon="2.04343">
        <ele>393.8</ele>
        <time>2011-07-20T08:19:07Z</time>
      </trkpt>
      <trkpt lat="43.08212" lon="2.04341">
        <ele>394.76</ele>
        <time>2011-07-20T08:20:58Z</time>
      </trkpt>
      <trkpt lat="43.08183" lon="2.04333">
        <ele>397.64</ele>
        <time>2011-07-20T08:21:19Z</time>
      </trkpt>
      <trkpt lat="43.08168" lon="2.04334">
        <ele>398.6</ele>
        <time>2011-07-20T08:21:29Z</time>
      </trkpt>
      <trkpt lat="43.08167" lon="2.04334">
        <ele>399.08</ele>
        <time>2011-07-20T08:21:30Z</time>
      </trkpt>
      <trkpt lat="43.08138" lon="2.04338">
        <ele>401.97</ele>
        <time>2011-07-20T08:21:49Z</time>
      </trkpt>
      <trkpt lat="43.08098" lon="2.04343">
        <ele>405.33</ele>
        <time>2011-07-20T08:22:14Z</time>
      </trkpt>
      <trkpt lat="43.08068" lon="2.04346">
        <ele>407.26</ele>
        <time>2011-07-20T08:22:30Z</time>
      </trkpt>
      <trkpt lat="43.08038" lon="2.04347">
        <ele>409.66</ele>
        <time>2011-07-20T08:22:44Z</time>
      </trkpt>
      <trkpt lat="43.07994" lon="2.0435">
        <ele>412.54</ele>
        <time>2011-07-20T08:23:05Z</time>
      </trkpt>
      <trkpt lat="43.07974" lon="2.04351">
        <ele>416.39</ele>
        <time>2011-07-20T08:23:15Z</time>
      </trkpt>
      <trkpt lat="43.07962" lon="2.04348">
        <ele>419.27</ele>
        <time>2011-07-20T08:23:21Z</time>
      </trkpt>
      <trkpt lat="43.07915" lon="2.04341">
        <ele>418.31</ele>
        <time>2011-07-20T08:23:43Z</time>
      </trkpt>
      <trkpt lat="43.07891" lon="2.04336">
        <ele>421.68</ele>
        <time>2011-07-20T08:23:54Z</time>
      </trkpt>
      <trkpt lat="43.07889" lon="2.04335">
        <ele>421.68</ele>
        <time>2011-07-20T08:23:55Z</time>
      </trkpt>
      <trkpt lat="43.07869" lon="2.04329">
        <ele>422.64</ele>
        <time>2011-07-20T08:24:07Z</time>
      </trkpt>
      <trkpt lat="43.07858" lon="2.04326">
        <ele>420.71</ele>
        <time>2011-07-20T08:24:13Z</time>
      </trkpt>
      <trkpt lat="43.07846" lon="2.04324">
        <ele>419.27</ele>
        <time>2011-07-20T08:24:16Z</time>
      </trkpt>
      <trkpt lat="43.0782" lon="2.04319">
        <ele>416.39</ele>
        <time>2011-07-20T08:24:20Z</time>
      </trkpt>
      <trkpt lat="43.07813" lon="2.04321">
        <ele>415.43</ele>
        <time>2011-07-20T08:24:21Z</time>
      </trkpt>
      <trkpt lat="43.07807" lon="2.04323">
        <ele>415.43</ele>
        <time>2011-07-20T08:24:22Z</time>
      </trkpt>
      <trkpt lat="43.07795" lon="2.04324">
        <ele>415.91</ele>
        <time>2011-07-20T08:24:24Z</time>
      </trkpt>
      <trkpt lat="43.07771" lon="2.04311">
        <ele>417.83</ele>
        <time>2011-07-20T08:24:33Z</time>
      </trkpt>
      <trkpt lat="43.07766" lon="2.04297">
        <ele>418.79</ele>
        <time>2011-07-20T08:24:38Z</time>
      </trkpt>
      <trkpt lat="43.07752" lon="2.0427">
        <ele>422.16</ele>
        <time>2011-07-20T08:24:50Z</time>
      </trkpt>
      <trkpt lat="43.07747" lon="2.0426">
        <ele>424.08</ele>
        <time>2011-07-20T08:24:56Z</time>
      </trkpt>
      <trkpt lat="43.0774" lon="2.04247">
        <ele>424.56</ele>
        <time>2011-07-20T08:25:06Z</time>
      </trkpt>
      <trkpt lat="43.07727" lon="2.04237">
        <ele>426</ele>
        <time>2011-07-20T08:25:39Z</time>
      </trkpt>
      <trkpt lat="43.07724" lon="2.04235">
        <ele>425.52</ele>
        <time>2011-07-20T08:25:40Z</time>
      </trkpt>
      <trkpt lat="43.07699" lon="2.04204">
        <ele>425.04</ele>
        <time>2011-07-20T08:25:52Z</time>
      </trkpt>
      <trkpt lat="43.07664" lon="2.04172">
        <ele>426.48</ele>
        <time>2011-07-20T08:26:04Z</time>
      </trkpt>
      <trkpt lat="43.07655" lon="2.04147">
        <ele>427.92</ele>
        <time>2011-07-20T08:26:11Z</time>
      </trkpt>
      <trkpt lat="43.07646" lon="2.041">
        <ele>430.81</ele>
        <time>2011-07-20T08:26:26Z</time>
      </trkpt>
      <trkpt lat="43.07646" lon="2.04091">
        <ele>432.25</ele>
        <time>2011-07-20T08:26:30Z</time>
      </trkpt>
      <trkpt lat="43.07646" lon="2.04073">
        <ele>434.17</ele>
        <time>2011-07-20T08:26:36Z</time>
      </trkpt>
      <trkpt lat="43.07646" lon="2.04069">
        <ele>434.17</ele>
        <time>2011-07-20T08:26:37Z</time>
      </trkpt>
      <trkpt lat="43.07644" lon="2.04066">
        <ele>435.13</ele>
        <time>2011-07-20T08:26:38Z</time>
      </trkpt>
      <trkpt lat="43.07644" lon="2.0406">
        <ele>435.61</ele>
        <time>2011-07-20T08:26:40Z</time>
      </trkpt>
      <trkpt lat="43.07643" lon="2.04057">
        <ele>436.58</ele>
        <time>2011-07-20T08:26:41Z</time>
      </trkpt>
      <trkpt lat="43.07643" lon="2.04049">
        <ele>437.54</ele>
        <time>2011-07-20T08:26:44Z</time>
      </trkpt>
      <trkpt lat="43.07643" lon="2.04038">
        <ele>439.46</ele>
        <time>2011-07-20T08:26:49Z</time>
      </trkpt>
      <trkpt lat="43.07643" lon="2.04036">
        <ele>439.46</ele>
        <time>2011-07-20T08:26:50Z</time>
      </trkpt>
      <trkpt lat="43.07642" lon="2.04034">
        <ele>439.46</ele>
        <time>2011-07-20T08:26:51Z</time>
      </trkpt>
      <trkpt lat="43.07641" lon="2.04032">
        <ele>439.94</ele>
        <time>2011-07-20T08:26:52Z</time>
      </trkpt>
      <trkpt lat="43.07639" lon="2.04031">
        <ele>439.94</ele>
        <time>2011-07-20T08:26:53Z</time>
      </trkpt>
      <trkpt lat="43.07637" lon="2.04029">
        <ele>439.94</ele>
        <time>2011-07-20T08:26:54Z</time>
      </trkpt>
      <trkpt lat="43.07606" lon="2.04004">
        <ele>442.82</ele>
        <time>2011-07-20T08:27:11Z</time>
      </trkpt>
      <trkpt lat="43.07579" lon="2.03992">
        <ele>444.75</ele>
        <time>2011-07-20T08:27:25Z</time>
      </trkpt>
      <trkpt lat="43.07553" lon="2.0399">
        <ele>444.75</ele>
        <time>2011-07-20T08:27:39Z</time>
      </trkpt>
      <trkpt lat="43.07523" lon="2.03976">
        <ele>447.63</ele>
        <time>2011-07-20T08:27:57Z</time>
      </trkpt>
      <trkpt lat="43.07503" lon="2.03953">
        <ele>446.67</ele>
        <time>2011-07-20T08:28:10Z</time>
      </trkpt>
      <trkpt lat="43.07504" lon="2.03949">
        <ele>446.67</ele>
        <time>2011-07-20T08:28:11Z</time>
      </trkpt>
      <trkpt lat="43.07505" lon="2.03944">
        <ele>446.67</ele>
        <time>2011-07-20T08:28:12Z</time>
      </trkpt>
      <trkpt lat="43.07521" lon="2.03872">
        <ele>446.67</ele>
        <time>2011-07-20T08:28:29Z</time>
      </trkpt>
      <trkpt lat="43.07522" lon="2.03863">
        <ele>447.63</ele>
        <time>2011-07-20T08:28:32Z</time>
      </trkpt>
      <trkpt lat="43.07529" lon="2.03836">
        <ele>448.59</ele>
        <time>2011-07-20T08:28:45Z</time>
      </trkpt>
      <trkpt lat="43.07544" lon="2.03774">
        <ele>451</ele>
        <time>2011-07-20T08:29:02Z</time>
      </trkpt>
      <trkpt lat="43.07552" lon="2.03739">
        <ele>453.88</ele>
        <time>2011-07-20T08:29:13Z</time>
      </trkpt>
      <trkpt lat="43.07556" lon="2.03703">
        <ele>451.48</ele>
        <time>2011-07-20T08:29:21Z</time>
      </trkpt>
      <trkpt lat="43.07557" lon="2.03698">
        <ele>451</ele>
        <time>2011-07-20T08:29:22Z</time>
      </trkpt>
      <trkpt lat="43.07551" lon="2.03643">
        <ele>451.48</ele>
        <time>2011-07-20T08:29:31Z</time>
      </trkpt>
      <trkpt lat="43.07521" lon="2.03576">
        <ele>449.55</ele>
        <time>2011-07-20T08:29:43Z</time>
      </trkpt>
      <trkpt lat="43.07515" lon="2.0356">
        <ele>449.07</ele>
        <time>2011-07-20T08:29:45Z</time>
      </trkpt>
      <trkpt lat="43.07511" lon="2.03548">
        <ele>447.15</ele>
        <time>2011-07-20T08:29:47Z</time>
      </trkpt>
      <trkpt lat="43.07507" lon="2.03544">
        <ele>446.67</ele>
        <time>2011-07-20T08:29:48Z</time>
      </trkpt>
      <trkpt lat="43.07501" lon="2.03536">
        <ele>445.71</ele>
        <time>2011-07-20T08:29:50Z</time>
      </trkpt>
      <trkpt lat="43.07501" lon="2.03532">
        <ele>445.23</ele>
        <time>2011-07-20T08:29:51Z</time>
      </trkpt>
      <trkpt lat="43.07504" lon="2.03529">
        <ele>444.75</ele>
        <time>2011-07-20T08:29:52Z</time>
      </trkpt>
      <trkpt lat="43.07506" lon="2.03528">
        <ele>444.75</ele>
        <time>2011-07-20T08:29:53Z</time>
      </trkpt>
      <trkpt lat="43.07508" lon="2.03529">
        <ele>444.75</ele>
        <time>2011-07-20T08:29:54Z</time>
      </trkpt>
      <trkpt lat="43.0751" lon="2.0353">
        <ele>445.23</ele>
        <time>2011-07-20T08:29:55Z</time>
      </trkpt>
      <trkpt lat="43.07513" lon="2.03529">
        <ele>445.71</ele>
        <time>2011-07-20T08:29:56Z</time>
      </trkpt>
      <trkpt lat="43.07515" lon="2.03527">
        <ele>445.71</ele>
        <time>2011-07-20T08:29:57Z</time>
      </trkpt>
      <trkpt lat="43.07516" lon="2.03524">
        <ele>446.19</ele>
        <time>2011-07-20T08:29:58Z</time>
      </trkpt>
      <trkpt lat="43.07515" lon="2.03522">
        <ele>446.19</ele>
        <time>2011-07-20T08:29:59Z</time>
      </trkpt>
      <trkpt lat="43.07514" lon="2.0352">
        <ele>446.19</ele>
        <time>2011-07-20T08:30:00Z</time>
      </trkpt>
      <trkpt lat="43.07513" lon="2.03518">
        <ele>446.67</ele>
        <time>2011-07-20T08:30:01Z</time>
      </trkpt>
      <trkpt lat="43.07508" lon="2.03507">
        <ele>448.11</ele>
        <time>2011-07-20T08:30:06Z</time>
      </trkpt>
      <trkpt lat="43.07494" lon="2.03466">
        <ele>450.52</ele>
        <time>2011-07-20T08:30:18Z</time>
      </trkpt>
      <trkpt lat="43.07479" lon="2.03437">
        <ele>453.88</ele>
        <time>2011-07-20T08:30:30Z</time>
      </trkpt>
      <trkpt lat="43.07457" lon="2.03416">
        <ele>456.76</ele>
        <time>2011-07-20T08:30:43Z</time>
      </trkpt>
      <trkpt lat="43.07449" lon="2.03377">
        <ele>459.65</ele>
        <time>2011-07-20T08:30:56Z</time>
      </trkpt>
      <trkpt lat="43.07452" lon="2.03356">
        <ele>460.61</ele>
        <time>2011-07-20T08:31:10Z</time>
      </trkpt>
      <trkpt lat="43.07452" lon="2.03326">
        <ele>460.61</ele>
        <time>2011-07-20T08:31:32Z</time>
      </trkpt>
      <trkpt lat="43.07454" lon="2.03295">
        <ele>458.69</ele>
        <time>2011-07-20T08:31:37Z</time>
      </trkpt>
      <trkpt lat="43.07455" lon="2.03282">
        <ele>458.21</ele>
        <time>2011-07-20T08:31:39Z</time>
      </trkpt>
      <trkpt lat="43.07456" lon="2.03276">
        <ele>458.21</ele>
        <time>2011-07-20T08:31:40Z</time>
      </trkpt>
      <trkpt lat="43.07457" lon="2.03235">
        <ele>457.24</ele>
        <time>2011-07-20T08:31:46Z</time>
      </trkpt>
      <trkpt lat="43.07453" lon="2.03182">
        <ele>460.13</ele>
        <time>2011-07-20T08:31:58Z</time>
      </trkpt>
      <trkpt lat="43.07454" lon="2.03169">
        <ele>460.13</ele>
        <time>2011-07-20T08:32:02Z</time>
      </trkpt>
      <trkpt lat="43.07444" lon="2.03116">
        <ele>460.61</ele>
        <time>2011-07-20T08:32:14Z</time>
      </trkpt>
      <trkpt lat="43.07436" lon="2.03066">
        <ele>461.57</ele>
        <time>2011-07-20T08:32:27Z</time>
      </trkpt>
      <trkpt lat="43.07436" lon="2.03021">
        <ele>460.61</ele>
        <time>2011-07-20T08:32:39Z</time>
      </trkpt>
      <trkpt lat="43.07435" lon="2.03015">
        <ele>460.13</ele>
        <time>2011-07-20T08:32:40Z</time>
      </trkpt>
      <trkpt lat="43.07424" lon="2.0296">
        <ele>457.72</ele>
        <time>2011-07-20T08:32:48Z</time>
      </trkpt>
      <trkpt lat="43.07417" lon="2.02937">
        <ele>456.28</ele>
        <time>2011-07-20T08:32:51Z</time>
      </trkpt>
      <trkpt lat="43.07414" lon="2.0293">
        <ele>456.28</ele>
        <time>2011-07-20T08:32:52Z</time>
      </trkpt>
      <trkpt lat="43.0741" lon="2.02922">
        <ele>454.84</ele>
        <time>2011-07-20T08:32:53Z</time>
      </trkpt>
      <trkpt lat="43.07399" lon="2.02906">
        <ele>452.92</ele>
        <time>2011-07-20T08:32:55Z</time>
      </trkpt>
      <trkpt lat="43.07374" lon="2.02868">
        <ele>449.55</ele>
        <time>2011-07-20T08:33:00Z</time>
      </trkpt>
      <trkpt lat="43.07366" lon="2.02851">
        <ele>448.59</ele>
        <time>2011-07-20T08:33:02Z</time>
      </trkpt>
      <trkpt lat="43.07361" lon="2.02844">
        <ele>447.15</ele>
        <time>2011-07-20T08:33:03Z</time>
      </trkpt>
      <trkpt lat="43.07354" lon="2.02839">
        <ele>446.67</ele>
        <time>2011-07-20T08:33:04Z</time>
      </trkpt>
      <trkpt lat="43.07348" lon="2.02835">
        <ele>445.71</ele>
        <time>2011-07-20T08:33:05Z</time>
      </trkpt>
      <trkpt lat="43.07325" lon="2.02832">
        <ele>444.75</ele>
        <time>2011-07-20T08:33:11Z</time>
      </trkpt>
      <trkpt lat="43.07326" lon="2.02832">
        <ele>444.75</ele>
        <time>2011-07-20T08:33:17Z</time>
      </trkpt>
      <trkpt lat="43.07327" lon="2.02832">
        <ele>444.75</ele>
        <time>2011-07-20T08:33:18Z</time>
      </trkpt>
      <trkpt lat="43.07331" lon="2.02835">
        <ele>445.23</ele>
        <time>2011-07-20T08:33:21Z</time>
      </trkpt>
      <trkpt lat="43.07331" lon="2.02837">
        <ele>445.23</ele>
        <time>2011-07-20T08:33:22Z</time>
      </trkpt>
      <trkpt lat="43.0733" lon="2.02838">
        <ele>445.71</ele>
        <time>2011-07-20T08:33:23Z</time>
      </trkpt>
      <trkpt lat="43.07326" lon="2.0284">
        <ele>446.67</ele>
        <time>2011-07-20T08:33:29Z</time>
      </trkpt>
      <trkpt lat="43.07302" lon="2.02842">
        <ele>445.23</ele>
        <time>2011-07-20T08:33:39Z</time>
      </trkpt>
      <trkpt lat="43.07289" lon="2.02837">
        <ele>441.86</ele>
        <time>2011-07-20T08:33:43Z</time>
      </trkpt>
      <trkpt lat="43.07278" lon="2.02837">
        <ele>439.46</ele>
        <time>2011-07-20T08:33:45Z</time>
      </trkpt>
      <trkpt lat="43.07273" lon="2.02837">
        <ele>438.5</ele>
        <time>2011-07-20T08:33:46Z</time>
      </trkpt>
      <trkpt lat="43.07268" lon="2.02837">
        <ele>436.58</ele>
        <time>2011-07-20T08:33:47Z</time>
      </trkpt>
      <trkpt lat="43.07263" lon="2.02837">
        <ele>436.1</ele>
        <time>2011-07-20T08:33:48Z</time>
      </trkpt>
      <trkpt lat="43.07258" lon="2.02836">
        <ele>435.13</ele>
        <time>2011-07-20T08:33:49Z</time>
      </trkpt>
      <trkpt lat="43.07253" lon="2.02834">
        <ele>434.17</ele>
        <time>2011-07-20T08:33:50Z</time>
      </trkpt>
      <trkpt lat="43.07247" lon="2.02831">
        <ele>432.73</ele>
        <time>2011-07-20T08:33:51Z</time>
      </trkpt>
      <trkpt lat="43.07227" lon="2.02826">
        <ele>430.33</ele>
        <time>2011-07-20T08:33:54Z</time>
      </trkpt>
      <trkpt lat="43.07207" lon="2.02823">
        <ele>426.96</ele>
        <time>2011-07-20T08:33:57Z</time>
      </trkpt>
      <trkpt lat="43.07194" lon="2.02821">
        <ele>425.52</ele>
        <time>2011-07-20T08:33:59Z</time>
      </trkpt>
      <trkpt lat="43.07174" lon="2.02815">
        <ele>422.16</ele>
        <time>2011-07-20T08:34:02Z</time>
      </trkpt>
      <trkpt lat="43.07149" lon="2.02802">
        <ele>418.79</ele>
        <time>2011-07-20T08:34:06Z</time>
      </trkpt>
      <trkpt lat="43.07144" lon="2.02797">
        <ele>418.31</ele>
        <time>2011-07-20T08:34:07Z</time>
      </trkpt>
      <trkpt lat="43.07128" lon="2.0279">
        <ele>418.31</ele>
        <time>2011-07-20T08:34:10Z</time>
      </trkpt>
      <trkpt lat="43.07126" lon="2.02792">
        <ele>418.31</ele>
        <time>2011-07-20T08:34:11Z</time>
      </trkpt>
      <trkpt lat="43.07126" lon="2.02793">
        <ele>418.31</ele>
        <time>2011-07-20T08:34:12Z</time>
      </trkpt>
      <trkpt lat="43.07114" lon="2.02809">
        <ele>417.35</ele>
        <time>2011-07-20T08:34:21Z</time>
      </trkpt>
      <trkpt lat="43.07113" lon="2.02809">
        <ele>417.83</ele>
        <time>2011-07-20T08:34:45Z</time>
      </trkpt>
      <trkpt lat="43.0711" lon="2.02818">
        <ele>416.87</ele>
        <time>2011-07-20T08:34:54Z</time>
      </trkpt>
      <trkpt lat="43.07095" lon="2.02835">
        <ele>413.5</ele>
        <time>2011-07-20T08:34:58Z</time>
      </trkpt>
      <trkpt lat="43.07072" lon="2.02856">
        <ele>410.62</ele>
        <time>2011-07-20T08:35:02Z</time>
      </trkpt>
      <trkpt lat="43.0706" lon="2.02866">
        <ele>409.66</ele>
        <time>2011-07-20T08:35:04Z</time>
      </trkpt>
      <trkpt lat="43.07042" lon="2.02879">
        <ele>407.74</ele>
        <time>2011-07-20T08:35:09Z</time>
      </trkpt>
      <trkpt lat="43.0704" lon="2.02879">
        <ele>407.74</ele>
        <time>2011-07-20T08:35:10Z</time>
      </trkpt>
      <trkpt lat="43.07038" lon="2.02878">
        <ele>407.74</ele>
        <time>2011-07-20T08:35:11Z</time>
      </trkpt>
      <trkpt lat="43.07036" lon="2.02877">
        <ele>407.26</ele>
        <time>2011-07-20T08:35:12Z</time>
      </trkpt>
      <trkpt lat="43.07034" lon="2.02874">
        <ele>407.26</ele>
        <time>2011-07-20T08:35:13Z</time>
      </trkpt>
      <trkpt lat="43.0703" lon="2.02874">
        <ele>407.26</ele>
        <time>2011-07-20T08:35:14Z</time>
      </trkpt>
      <trkpt lat="43.07026" lon="2.02872">
        <ele>406.77</ele>
        <time>2011-07-20T08:35:15Z</time>
      </trkpt>
      <trkpt lat="43.07012" lon="2.02871">
        <ele>406.29</ele>
        <time>2011-07-20T08:35:18Z</time>
      </trkpt>
      <trkpt lat="43.06985" lon="2.02873">
        <ele>405.33</ele>
        <time>2011-07-20T08:35:23Z</time>
      </trkpt>
      <trkpt lat="43.06959" lon="2.02868">
        <ele>403.89</ele>
        <time>2011-07-20T08:35:27Z</time>
      </trkpt>
      <trkpt lat="43.06912" lon="2.02845">
        <ele>401.49</ele>
        <time>2011-07-20T08:35:34Z</time>
      </trkpt>
      <trkpt lat="43.06878" lon="2.02819">
        <ele>399.08</ele>
        <time>2011-07-20T08:35:39Z</time>
      </trkpt>
      <trkpt lat="43.06843" lon="2.02784">
        <ele>395.72</ele>
        <time>2011-07-20T08:35:44Z</time>
      </trkpt>
      <trkpt lat="43.06836" lon="2.02778">
        <ele>395.24</ele>
        <time>2011-07-20T08:35:45Z</time>
      </trkpt>
      <trkpt lat="43.06819" lon="2.02767">
        <ele>393.8</ele>
        <time>2011-07-20T08:35:47Z</time>
      </trkpt>
      <trkpt lat="43.06764" lon="2.02736">
        <ele>390.43</ele>
        <time>2011-07-20T08:35:55Z</time>
      </trkpt>
      <trkpt lat="43.06716" lon="2.02683">
        <ele>387.55</ele>
        <time>2011-07-20T08:36:03Z</time>
      </trkpt>
      <trkpt lat="43.06702" lon="2.02667">
        <ele>386.11</ele>
        <time>2011-07-20T08:36:05Z</time>
      </trkpt>
      <trkpt lat="43.06659" lon="2.02617">
        <ele>382.74</ele>
        <time>2011-07-20T08:36:11Z</time>
      </trkpt>
      <trkpt lat="43.06616" lon="2.02562">
        <ele>379.86</ele>
        <time>2011-07-20T08:36:17Z</time>
      </trkpt>
      <trkpt lat="43.06561" lon="2.02482">
        <ele>376.97</ele>
        <time>2011-07-20T08:36:26Z</time>
      </trkpt>
      <trkpt lat="43.06553" lon="2.02475">
        <ele>376.49</ele>
        <time>2011-07-20T08:36:27Z</time>
      </trkpt>
      <trkpt lat="43.06545" lon="2.0247">
        <ele>375.53</ele>
        <time>2011-07-20T08:36:28Z</time>
      </trkpt>
      <trkpt lat="43.06536" lon="2.02469">
        <ele>375.53</ele>
        <time>2011-07-20T08:36:29Z</time>
      </trkpt>
      <trkpt lat="43.06527" lon="2.0247">
        <ele>375.05</ele>
        <time>2011-07-20T08:36:30Z</time>
      </trkpt>
      <trkpt lat="43.06519" lon="2.02472">
        <ele>374.57</ele>
        <time>2011-07-20T08:36:31Z</time>
      </trkpt>
      <trkpt lat="43.0649" lon="2.02479">
        <ele>374.57</ele>
        <time>2011-07-20T08:36:35Z</time>
      </trkpt>
      <trkpt lat="43.06483" lon="2.02478">
        <ele>375.05</ele>
        <time>2011-07-20T08:36:36Z</time>
      </trkpt>
      <trkpt lat="43.06477" lon="2.02475">
        <ele>374.57</ele>
        <time>2011-07-20T08:36:37Z</time>
      </trkpt>
      <trkpt lat="43.06471" lon="2.02471">
        <ele>374.57</ele>
        <time>2011-07-20T08:36:38Z</time>
      </trkpt>
      <trkpt lat="43.06466" lon="2.02467">
        <ele>374.09</ele>
        <time>2011-07-20T08:36:39Z</time>
      </trkpt>
      <trkpt lat="43.06461" lon="2.02463">
        <ele>375.05</ele>
        <time>2011-07-20T08:36:40Z</time>
      </trkpt>
      <trkpt lat="43.06457" lon="2.02459">
        <ele>374.09</ele>
        <time>2011-07-20T08:36:41Z</time>
      </trkpt>
      <trkpt lat="43.06452" lon="2.02454">
        <ele>373.61</ele>
        <time>2011-07-20T08:36:42Z</time>
      </trkpt>
      <trkpt lat="43.06446" lon="2.0245">
        <ele>374.09</ele>
        <time>2011-07-20T08:36:43Z</time>
      </trkpt>
      <trkpt lat="43.06441" lon="2.02447">
        <ele>374.09</ele>
        <time>2011-07-20T08:36:44Z</time>
      </trkpt>
      <trkpt lat="43.06436" lon="2.02444">
        <ele>373.61</ele>
        <time>2011-07-20T08:36:45Z</time>
      </trkpt>
      <trkpt lat="43.0643" lon="2.02442">
        <ele>372.65</ele>
        <time>2011-07-20T08:36:46Z</time>
      </trkpt>
      <trkpt lat="43.06424" lon="2.0244">
        <ele>372.65</ele>
        <time>2011-07-20T08:36:47Z</time>
      </trkpt>
      <trkpt lat="43.06418" lon="2.02439">
        <ele>372.65</ele>
        <time>2011-07-20T08:36:48Z</time>
      </trkpt>
      <trkpt lat="43.06412" lon="2.02438">
        <ele>373.13</ele>
        <time>2011-07-20T08:36:49Z</time>
      </trkpt>
      <trkpt lat="43.06302" lon="2.02408">
        <ele>369.76</ele>
        <time>2011-07-20T08:37:07Z</time>
      </trkpt>
      <trkpt lat="43.06184" lon="2.0239">
        <ele>367.36</ele>
        <time>2011-07-20T08:37:26Z</time>
      </trkpt>
      <trkpt lat="43.06179" lon="2.02387">
        <ele>367.36</ele>
        <time>2011-07-20T08:37:27Z</time>
      </trkpt>
      <trkpt lat="43.06173" lon="2.02382">
        <ele>365.92</ele>
        <time>2011-07-20T08:37:28Z</time>
      </trkpt>
      <trkpt lat="43.06169" lon="2.02376">
        <ele>365.92</ele>
        <time>2011-07-20T08:37:29Z</time>
      </trkpt>
      <trkpt lat="43.06167" lon="2.02367">
        <ele>365.92</ele>
        <time>2011-07-20T08:37:30Z</time>
      </trkpt>
      <trkpt lat="43.06166" lon="2.02358">
        <ele>365.92</ele>
        <time>2011-07-20T08:37:31Z</time>
      </trkpt>
      <trkpt lat="43.06166" lon="2.02349">
        <ele>365.44</ele>
        <time>2011-07-20T08:37:32Z</time>
      </trkpt>
      <trkpt lat="43.06166" lon="2.02341">
        <ele>364.96</ele>
        <time>2011-07-20T08:37:33Z</time>
      </trkpt>
      <trkpt lat="43.06166" lon="2.02325">
        <ele>364.96</ele>
        <time>2011-07-20T08:37:35Z</time>
      </trkpt>
      <trkpt lat="43.06166" lon="2.0232">
        <ele>364.48</ele>
        <time>2011-07-20T08:37:36Z</time>
      </trkpt>
      <trkpt lat="43.06163" lon="2.02309">
        <ele>364</ele>
        <time>2011-07-20T08:37:38Z</time>
      </trkpt>
      <trkpt lat="43.06161" lon="2.02305">
        <ele>363.52</ele>
        <time>2011-07-20T08:37:39Z</time>
      </trkpt>
      <trkpt lat="43.06158" lon="2.02301">
        <ele>364</ele>
        <time>2011-07-20T08:37:40Z</time>
      </trkpt>
      <trkpt lat="43.06149" lon="2.02295">
        <ele>362.55</ele>
        <time>2011-07-20T08:37:42Z</time>
      </trkpt>
      <trkpt lat="43.06132" lon="2.02283">
        <ele>363.04</ele>
        <time>2011-07-20T08:37:50Z</time>
      </trkpt>
      <trkpt lat="43.06127" lon="2.02284">
        <ele>363.04</ele>
        <time>2011-07-20T08:37:55Z</time>
      </trkpt>
      <trkpt lat="43.06127" lon="2.02285">
        <ele>362.55</ele>
        <time>2011-07-20T08:37:56Z</time>
      </trkpt>
      <trkpt lat="43.06129" lon="2.02286">
        <ele>362.55</ele>
        <time>2011-07-20T08:37:57Z</time>
      </trkpt>
      <trkpt lat="43.06131" lon="2.02295">
        <ele>363.04</ele>
        <time>2011-07-20T08:38:08Z</time>
      </trkpt>
      <trkpt lat="43.06146" lon="2.02294">
        <ele>364</ele>
        <time>2011-07-20T08:38:19Z</time>
      </trkpt>
      <trkpt lat="43.06142" lon="2.02291">
        <ele>363.52</ele>
        <time>2011-07-20T08:38:28Z</time>
      </trkpt>
      <trkpt lat="43.0612" lon="2.0228">
        <ele>363.04</ele>
        <time>2011-07-20T08:38:39Z</time>
      </trkpt>
      <trkpt lat="43.06085" lon="2.02275">
        <ele>362.07</ele>
        <time>2011-07-20T08:38:48Z</time>
      </trkpt>
      <trkpt lat="43.06087" lon="2.02269">
        <ele>362.55</ele>
        <time>2011-07-20T08:38:52Z</time>
      </trkpt>
      <trkpt lat="43.06109" lon="2.02209">
        <ele>362.55</ele>
        <time>2011-07-20T08:39:04Z</time>
      </trkpt>
      <trkpt lat="43.06126" lon="2.02153">
        <ele>361.11</ele>
        <time>2011-07-20T08:39:17Z</time>
      </trkpt>
      <trkpt lat="43.06129" lon="2.02149">
        <ele>361.59</ele>
        <time>2011-07-20T08:39:18Z</time>
      </trkpt>
      <trkpt lat="43.06132" lon="2.02145">
        <ele>360.63</ele>
        <time>2011-07-20T08:39:19Z</time>
      </trkpt>
      <trkpt lat="43.06163" lon="2.02109">
        <ele>361.59</ele>
        <time>2011-07-20T08:39:32Z</time>
      </trkpt>
      <trkpt lat="43.06214" lon="2.02046">
        <ele>362.07</ele>
        <time>2011-07-20T08:39:55Z</time>
      </trkpt>
      <trkpt lat="43.06256" lon="2.01986">
        <ele>364</ele>
        <time>2011-07-20T08:40:14Z</time>
      </trkpt>
      <trkpt lat="43.06267" lon="2.01971">
        <ele>363.52</ele>
        <time>2011-07-20T08:40:19Z</time>
      </trkpt>
      <trkpt lat="43.0627" lon="2.01967">
        <ele>362.55</ele>
        <time>2011-07-20T08:40:20Z</time>
      </trkpt>
      <trkpt lat="43.06305" lon="2.01911">
        <ele>359.67</ele>
        <time>2011-07-20T08:40:30Z</time>
      </trkpt>
      <trkpt lat="43.06342" lon="2.01855">
        <ele>360.15</ele>
        <time>2011-07-20T08:40:43Z</time>
      </trkpt>
      <trkpt lat="43.06375" lon="2.01796">
        <ele>358.71</ele>
        <time>2011-07-20T08:40:56Z</time>
      </trkpt>
      <trkpt lat="43.06378" lon="2.01791">
        <ele>358.71</ele>
        <time>2011-07-20T08:40:57Z</time>
      </trkpt>
      <trkpt lat="43.06379" lon="2.01785">
        <ele>358.23</ele>
        <time>2011-07-20T08:40:58Z</time>
      </trkpt>
      <trkpt lat="43.06381" lon="2.01773">
        <ele>358.23</ele>
        <time>2011-07-20T08:41:00Z</time>
      </trkpt>
      <trkpt lat="43.06383" lon="2.01739">
        <ele>356.79</ele>
        <time>2011-07-20T08:41:05Z</time>
      </trkpt>
      <trkpt lat="43.06385" lon="2.01732">
        <ele>356.79</ele>
        <time>2011-07-20T08:41:06Z</time>
      </trkpt>
      <trkpt lat="43.06387" lon="2.01727">
        <ele>356.79</ele>
        <time>2011-07-20T08:41:07Z</time>
      </trkpt>
      <trkpt lat="43.0639" lon="2.01721">
        <ele>356.79</ele>
        <time>2011-07-20T08:41:08Z</time>
      </trkpt>
      <trkpt lat="43.06393" lon="2.01716">
        <ele>356.79</ele>
        <time>2011-07-20T08:41:09Z</time>
      </trkpt>
      <trkpt lat="43.06397" lon="2.01712">
        <ele>356.79</ele>
        <time>2011-07-20T08:41:10Z</time>
      </trkpt>
      <trkpt lat="43.06447" lon="2.01648">
        <ele>356.31</ele>
        <time>2011-07-20T08:41:26Z</time>
      </trkpt>
      <trkpt lat="43.06456" lon="2.01625">
        <ele>355.34</ele>
        <time>2011-07-20T08:41:32Z</time>
      </trkpt>
      <trkpt lat="43.06456" lon="2.01619">
        <ele>354.86</ele>
        <time>2011-07-20T08:41:33Z</time>
      </trkpt>
      <trkpt lat="43.06456" lon="2.01594">
        <ele>354.38</ele>
        <time>2011-07-20T08:41:37Z</time>
      </trkpt>
      <trkpt lat="43.06457" lon="2.01556">
        <ele>354.86</ele>
        <time>2011-07-20T08:41:44Z</time>
      </trkpt>
      <trkpt lat="43.06458" lon="2.01539">
        <ele>355.83</ele>
        <time>2011-07-20T08:41:47Z</time>
      </trkpt>
      <trkpt lat="43.06465" lon="2.01446">
        <ele>353.42</ele>
        <time>2011-07-20T08:42:06Z</time>
      </trkpt>
      <trkpt lat="43.06467" lon="2.01443">
        <ele>354.38</ele>
        <time>2011-07-20T08:42:07Z</time>
      </trkpt>
      <trkpt lat="43.0647" lon="2.01441">
        <ele>354.38</ele>
        <time>2011-07-20T08:42:08Z</time>
      </trkpt>
      <trkpt lat="43.06473" lon="2.01442">
        <ele>354.86</ele>
        <time>2011-07-20T08:42:09Z</time>
      </trkpt>
      <trkpt lat="43.06476" lon="2.01444">
        <ele>354.86</ele>
        <time>2011-07-20T08:42:10Z</time>
      </trkpt>
      <trkpt lat="43.06479" lon="2.01446">
        <ele>355.34</ele>
        <time>2011-07-20T08:42:11Z</time>
      </trkpt>
      <trkpt lat="43.06529" lon="2.01484">
        <ele>356.79</ele>
        <time>2011-07-20T08:42:30Z</time>
      </trkpt>
      <trkpt lat="43.06542" lon="2.01487">
        <ele>357.75</ele>
        <time>2011-07-20T08:42:35Z</time>
      </trkpt>
      <trkpt lat="43.06544" lon="2.01485">
        <ele>357.75</ele>
        <time>2011-07-20T08:42:36Z</time>
      </trkpt>
      <trkpt lat="43.06546" lon="2.01481">
        <ele>357.75</ele>
        <time>2011-07-20T08:42:37Z</time>
      </trkpt>
      <trkpt lat="43.06563" lon="2.01441">
        <ele>358.23</ele>
        <time>2011-07-20T08:42:47Z</time>
      </trkpt>
      <trkpt lat="43.06587" lon="2.01423">
        <ele>360.63</ele>
        <time>2011-07-20T08:42:55Z</time>
      </trkpt>
      <trkpt lat="43.06617" lon="2.01371">
        <ele>364</ele>
        <time>2011-07-20T08:43:09Z</time>
      </trkpt>
      <trkpt lat="43.06638" lon="2.01338">
        <ele>367.36</ele>
        <time>2011-07-20T08:43:20Z</time>
      </trkpt>
      <trkpt lat="43.06668" lon="2.01279">
        <ele>369.28</ele>
        <time>2011-07-20T08:43:36Z</time>
      </trkpt>
      <trkpt lat="43.06685" lon="2.01232">
        <ele>371.21</ele>
        <time>2011-07-20T08:43:49Z</time>
      </trkpt>
      <trkpt lat="43.06686" lon="2.01228">
        <ele>371.69</ele>
        <time>2011-07-20T08:43:51Z</time>
      </trkpt>
      <trkpt lat="43.06686" lon="2.01227">
        <ele>371.69</ele>
        <time>2011-07-20T08:43:52Z</time>
      </trkpt>
      <trkpt lat="43.06692" lon="2.01217">
        <ele>372.17</ele>
        <time>2011-07-20T08:43:58Z</time>
      </trkpt>
      <trkpt lat="43.06692" lon="2.01215">
        <ele>371.69</ele>
        <time>2011-07-20T08:43:59Z</time>
      </trkpt>
      <trkpt lat="43.067" lon="2.01202">
        <ele>372.17</ele>
        <time>2011-07-20T08:44:08Z</time>
      </trkpt>
      <trkpt lat="43.06702" lon="2.01199">
        <ele>371.69</ele>
        <time>2011-07-20T08:44:10Z</time>
      </trkpt>
      <trkpt lat="43.06705" lon="2.01194">
        <ele>371.69</ele>
        <time>2011-07-20T08:44:13Z</time>
      </trkpt>
      <trkpt lat="43.06705" lon="2.01192">
        <ele>372.17</ele>
        <time>2011-07-20T08:44:14Z</time>
      </trkpt>
      <trkpt lat="43.06706" lon="2.01186">
        <ele>372.17</ele>
        <time>2011-07-20T08:44:18Z</time>
      </trkpt>
      <trkpt lat="43.06716" lon="2.01153">
        <ele>372.17</ele>
        <time>2011-07-20T08:44:34Z</time>
      </trkpt>
      <trkpt lat="43.0672" lon="2.0114">
        <ele>371.69</ele>
        <time>2011-07-20T08:44:43Z</time>
      </trkpt>
      <trkpt lat="43.0672" lon="2.01138">
        <ele>371.69</ele>
        <time>2011-07-20T08:44:44Z</time>
      </trkpt>
      <trkpt lat="43.0673" lon="2.01103">
        <ele>370.73</ele>
        <time>2011-07-20T08:44:58Z</time>
      </trkpt>
      <trkpt lat="43.06731" lon="2.01098">
        <ele>370.73</ele>
        <time>2011-07-20T08:45:01Z</time>
      </trkpt>
      <trkpt lat="43.0674" lon="2.01051">
        <ele>370.73</ele>
        <time>2011-07-20T08:45:12Z</time>
      </trkpt>
      <trkpt lat="43.06749" lon="2.01012">
        <ele>371.21</ele>
        <time>2011-07-20T08:45:21Z</time>
      </trkpt>
      <trkpt lat="43.06766" lon="2.00953">
        <ele>373.13</ele>
        <time>2011-07-20T08:45:33Z</time>
      </trkpt>
      <trkpt lat="43.06779" lon="2.00888">
        <ele>375.05</ele>
        <time>2011-07-20T08:45:47Z</time>
      </trkpt>
      <trkpt lat="43.06785" lon="2.0084">
        <ele>375.53</ele>
        <time>2011-07-20T08:45:57Z</time>
      </trkpt>
      <trkpt lat="43.06807" lon="2.00792">
        <ele>376.49</ele>
        <time>2011-07-20T08:46:09Z</time>
      </trkpt>
      <trkpt lat="43.06837" lon="2.00717">
        <ele>376.97</ele>
        <time>2011-07-20T08:46:26Z</time>
      </trkpt>
      <trkpt lat="43.06853" lon="2.00689">
        <ele>378.42</ele>
        <time>2011-07-20T08:46:34Z</time>
      </trkpt>
      <trkpt lat="43.0686" lon="2.00687">
        <ele>380.34</ele>
        <time>2011-07-20T08:46:37Z</time>
      </trkpt>
      <trkpt lat="43.06861" lon="2.00685">
        <ele>380.34</ele>
        <time>2011-07-20T08:46:38Z</time>
      </trkpt>
      <trkpt lat="43.06876" lon="2.00622">
        <ele>377.45</ele>
        <time>2011-07-20T08:46:52Z</time>
      </trkpt>
      <trkpt lat="43.0688" lon="2.00605">
        <ele>376.49</ele>
        <time>2011-07-20T08:46:54Z</time>
      </trkpt>
      <trkpt lat="43.06884" lon="2.00597">
        <ele>375.53</ele>
        <time>2011-07-20T08:46:55Z</time>
      </trkpt>
      <trkpt lat="43.06894" lon="2.00558">
        <ele>375.53</ele>
        <time>2011-07-20T08:47:02Z</time>
      </trkpt>
      <trkpt lat="43.069" lon="2.00548">
        <ele>374.57</ele>
        <time>2011-07-20T08:47:07Z</time>
      </trkpt>
      <trkpt lat="43.06901" lon="2.00545">
        <ele>374.57</ele>
        <time>2011-07-20T08:47:08Z</time>
      </trkpt>
      <trkpt lat="43.06905" lon="2.00536">
        <ele>371.69</ele>
        <time>2011-07-20T08:47:11Z</time>
      </trkpt>
      <trkpt lat="43.06909" lon="2.00532">
        <ele>371.69</ele>
        <time>2011-07-20T08:47:13Z</time>
      </trkpt>
      <trkpt lat="43.0691" lon="2.00533">
        <ele>371.21</ele>
        <time>2011-07-20T08:47:14Z</time>
      </trkpt>
      <trkpt lat="43.06911" lon="2.00534">
        <ele>371.21</ele>
        <time>2011-07-20T08:47:15Z</time>
      </trkpt>
      <trkpt lat="43.06915" lon="2.00538">
        <ele>371.21</ele>
        <time>2011-07-20T08:47:29Z</time>
      </trkpt>
      <trkpt lat="43.06921" lon="2.00547">
        <ele>370.73</ele>
        <time>2011-07-20T08:48:58Z</time>
      </trkpt>
      <trkpt lat="43.06922" lon="2.00551">
        <ele>370.24</ele>
        <time>2011-07-20T08:48:59Z</time>
      </trkpt>
      <trkpt lat="43.06922" lon="2.00555">
        <ele>370.24</ele>
        <time>2011-07-20T08:49:00Z</time>
      </trkpt>
      <trkpt lat="43.06925" lon="2.00591">
        <ele>369.76</ele>
        <time>2011-07-20T08:49:06Z</time>
      </trkpt>
      <trkpt lat="43.06929" lon="2.00621">
        <ele>367.84</ele>
        <time>2011-07-20T08:49:10Z</time>
      </trkpt>
      <trkpt lat="43.06933" lon="2.00624">
        <ele>367.84</ele>
        <time>2011-07-20T08:49:11Z</time>
      </trkpt>
      <trkpt lat="43.06937" lon="2.00622">
        <ele>366.88</ele>
        <time>2011-07-20T08:49:12Z</time>
      </trkpt>
      <trkpt lat="43.06939" lon="2.00616">
        <ele>366.4</ele>
        <time>2011-07-20T08:49:13Z</time>
      </trkpt>
      <trkpt lat="43.0694" lon="2.0061">
        <ele>366.4</ele>
        <time>2011-07-20T08:49:14Z</time>
      </trkpt>
      <trkpt lat="43.06941" lon="2.00603">
        <ele>365.92</ele>
        <time>2011-07-20T08:49:15Z</time>
      </trkpt>
      <trkpt lat="43.06941" lon="2.00597">
        <ele>365.44</ele>
        <time>2011-07-20T08:49:16Z</time>
      </trkpt>
      <trkpt lat="43.06942" lon="2.00581">
        <ele>364.48</ele>
        <time>2011-07-20T08:49:18Z</time>
      </trkpt>
      <trkpt lat="43.06943" lon="2.00566">
        <ele>364</ele>
        <time>2011-07-20T08:49:20Z</time>
      </trkpt>
      <trkpt lat="43.06947" lon="2.00522">
        <ele>360.15</ele>
        <time>2011-07-20T08:49:25Z</time>
      </trkpt>
      <trkpt lat="43.06949" lon="2.00513">
        <ele>359.67</ele>
        <time>2011-07-20T08:49:26Z</time>
      </trkpt>
      <trkpt lat="43.06956" lon="2.00446">
        <ele>356.31</ele>
        <time>2011-07-20T08:49:33Z</time>
      </trkpt>
      <trkpt lat="43.06957" lon="2.00402">
        <ele>352.94</ele>
        <time>2011-07-20T08:49:37Z</time>
      </trkpt>
      <trkpt lat="43.06954" lon="2.00368">
        <ele>351.5</ele>
        <time>2011-07-20T08:49:40Z</time>
      </trkpt>
      <trkpt lat="43.06951" lon="2.00359">
        <ele>351.5</ele>
        <time>2011-07-20T08:49:41Z</time>
      </trkpt>
      <trkpt lat="43.06942" lon="2.00342">
        <ele>349.58</ele>
        <time>2011-07-20T08:49:48Z</time>
      </trkpt>
      <trkpt lat="43.0694" lon="2.00339">
        <ele>349.58</ele>
        <time>2011-07-20T08:49:50Z</time>
      </trkpt>
      <trkpt lat="43.0694" lon="2.00336">
        <ele>349.1</ele>
        <time>2011-07-20T08:49:51Z</time>
      </trkpt>
      <trkpt lat="43.06941" lon="2.00333">
        <ele>349.1</ele>
        <time>2011-07-20T08:49:52Z</time>
      </trkpt>
      <trkpt lat="43.06942" lon="2.00329">
        <ele>348.62</ele>
        <time>2011-07-20T08:49:53Z</time>
      </trkpt>
      <trkpt lat="43.06943" lon="2.00326">
        <ele>347.65</ele>
        <time>2011-07-20T08:49:54Z</time>
      </trkpt>
      <trkpt lat="43.06945" lon="2.00322">
        <ele>347.65</ele>
        <time>2011-07-20T08:49:55Z</time>
      </trkpt>
      <trkpt lat="43.0695" lon="2.00314">
        <ele>348.62</ele>
        <time>2011-07-20T08:49:57Z</time>
      </trkpt>
      <trkpt lat="43.06984" lon="2.00261">
        <ele>348.62</ele>
        <time>2011-07-20T08:50:13Z</time>
      </trkpt>
      <trkpt lat="43.0702" lon="2.00211">
        <ele>351.98</ele>
        <time>2011-07-20T08:50:30Z</time>
      </trkpt>
      <trkpt lat="43.0704" lon="2.0016">
        <ele>351.98</ele>
        <time>2011-07-20T08:50:42Z</time>
      </trkpt>
      <trkpt lat="43.07046" lon="2.00151">
        <ele>351.5</ele>
        <time>2011-07-20T08:50:44Z</time>
      </trkpt>
      <trkpt lat="43.0705" lon="2.00147">
        <ele>351.5</ele>
        <time>2011-07-20T08:50:45Z</time>
      </trkpt>
      <trkpt lat="43.07054" lon="2.00144">
        <ele>351.98</ele>
        <time>2011-07-20T08:50:46Z</time>
      </trkpt>
      <trkpt lat="43.07058" lon="2.00141">
        <ele>351.98</ele>
        <time>2011-07-20T08:50:47Z</time>
      </trkpt>
      <trkpt lat="43.07063" lon="2.00139">
        <ele>351.98</ele>
        <time>2011-07-20T08:50:48Z</time>
      </trkpt>
      <trkpt lat="43.07068" lon="2.00137">
        <ele>351.5</ele>
        <time>2011-07-20T08:50:49Z</time>
      </trkpt>
      <trkpt lat="43.07125" lon="2.00109">
        <ele>348.62</ele>
        <time>2011-07-20T08:51:00Z</time>
      </trkpt>
      <trkpt lat="43.07163" lon="2.00087">
        <ele>345.25</ele>
        <time>2011-07-20T08:51:06Z</time>
      </trkpt>
      <trkpt lat="43.0717" lon="2.00083">
        <ele>345.25</ele>
        <time>2011-07-20T08:51:07Z</time>
      </trkpt>
      <trkpt lat="43.07211" lon="2.00055">
        <ele>343.81</ele>
        <time>2011-07-20T08:51:13Z</time>
      </trkpt>
      <trkpt lat="43.07217" lon="2.00052">
        <ele>343.81</ele>
        <time>2011-07-20T08:51:14Z</time>
      </trkpt>
      <trkpt lat="43.07224" lon="2.00052">
        <ele>343.81</ele>
        <time>2011-07-20T08:51:15Z</time>
      </trkpt>
      <trkpt lat="43.0723" lon="2.00053">
        <ele>344.29</ele>
        <time>2011-07-20T08:51:16Z</time>
      </trkpt>
      <trkpt lat="43.07236" lon="2.00054">
        <ele>344.29</ele>
        <time>2011-07-20T08:51:17Z</time>
      </trkpt>
      <trkpt lat="43.07259" lon="2.00065">
        <ele>344.77</ele>
        <time>2011-07-20T08:51:22Z</time>
      </trkpt>
      <trkpt lat="43.07264" lon="2.00066">
        <ele>345.25</ele>
        <time>2011-07-20T08:51:23Z</time>
      </trkpt>
      <trkpt lat="43.07268" lon="2.00065">
        <ele>345.73</ele>
        <time>2011-07-20T08:51:24Z</time>
      </trkpt>
      <trkpt lat="43.07272" lon="2.00065">
        <ele>345.73</ele>
        <time>2011-07-20T08:51:25Z</time>
      </trkpt>
      <trkpt lat="43.07275" lon="2.00063">
        <ele>346.21</ele>
        <time>2011-07-20T08:51:26Z</time>
      </trkpt>
      <trkpt lat="43.07279" lon="2.00061">
        <ele>346.21</ele>
        <time>2011-07-20T08:51:27Z</time>
      </trkpt>
      <trkpt lat="43.07282" lon="2.00058">
        <ele>345.73</ele>
        <time>2011-07-20T08:51:28Z</time>
      </trkpt>
      <trkpt lat="43.07286" lon="2.00055">
        <ele>345.73</ele>
        <time>2011-07-20T08:51:29Z</time>
      </trkpt>
      <trkpt lat="43.07347" lon="1.99998">
        <ele>344.29</ele>
        <time>2011-07-20T08:51:45Z</time>
      </trkpt>
      <trkpt lat="43.07424" lon="1.99954">
        <ele>344.29</ele>
        <time>2011-07-20T08:52:04Z</time>
      </trkpt>
      <trkpt lat="43.07521" lon="1.99901">
        <ele>346.21</ele>
        <time>2011-07-20T08:52:28Z</time>
      </trkpt>
      <trkpt lat="43.07538" lon="1.99892">
        <ele>346.21</ele>
        <time>2011-07-20T08:52:33Z</time>
      </trkpt>
      <trkpt lat="43.07542" lon="1.99889">
        <ele>345.73</ele>
        <time>2011-07-20T08:52:34Z</time>
      </trkpt>
      <trkpt lat="43.07551" lon="1.99881">
        <ele>345.25</ele>
        <time>2011-07-20T08:52:36Z</time>
      </trkpt>
      <trkpt lat="43.07606" lon="1.99817">
        <ele>341.89</ele>
        <time>2011-07-20T08:52:49Z</time>
      </trkpt>
      <trkpt lat="43.07611" lon="1.99811">
        <ele>341.89</ele>
        <time>2011-07-20T08:52:50Z</time>
      </trkpt>
      <trkpt lat="43.07616" lon="1.99804">
        <ele>341.41</ele>
        <time>2011-07-20T08:52:51Z</time>
      </trkpt>
      <trkpt lat="43.07619" lon="1.99796">
        <ele>340.44</ele>
        <time>2011-07-20T08:52:52Z</time>
      </trkpt>
      <trkpt lat="43.0762" lon="1.99787">
        <ele>340.44</ele>
        <time>2011-07-20T08:52:53Z</time>
      </trkpt>
      <trkpt lat="43.0762" lon="1.9978">
        <ele>340.44</ele>
        <time>2011-07-20T08:52:54Z</time>
      </trkpt>
      <trkpt lat="43.07623" lon="1.99768">
        <ele>340.44</ele>
        <time>2011-07-20T08:52:56Z</time>
      </trkpt>
      <trkpt lat="43.07626" lon="1.99766">
        <ele>340.92</ele>
        <time>2011-07-20T08:52:57Z</time>
      </trkpt>
      <trkpt lat="43.0768" lon="1.99748">
        <ele>341.89</ele>
        <time>2011-07-20T08:53:13Z</time>
      </trkpt>
      <trkpt lat="43.07711" lon="1.99729">
        <ele>345.25</ele>
        <time>2011-07-20T08:53:26Z</time>
      </trkpt>
      <trkpt lat="43.07747" lon="1.99711">
        <ele>348.13</ele>
        <time>2011-07-20T08:53:40Z</time>
      </trkpt>
      <trkpt lat="43.07752" lon="1.99709">
        <ele>349.1</ele>
        <time>2011-07-20T08:53:42Z</time>
      </trkpt>
      <trkpt lat="43.07755" lon="1.99704">
        <ele>349.58</ele>
        <time>2011-07-20T08:53:44Z</time>
      </trkpt>
      <trkpt lat="43.07767" lon="1.99661">
        <ele>346.21</ele>
        <time>2011-07-20T08:53:56Z</time>
      </trkpt>
      <trkpt lat="43.0777" lon="1.99649">
        <ele>345.25</ele>
        <time>2011-07-20T08:53:58Z</time>
      </trkpt>
      <trkpt lat="43.07781" lon="1.99603">
        <ele>342.85</ele>
        <time>2011-07-20T08:54:05Z</time>
      </trkpt>
      <trkpt lat="43.07805" lon="1.99514">
        <ele>341.41</ele>
        <time>2011-07-20T08:54:21Z</time>
      </trkpt>
      <trkpt lat="43.07823" lon="1.99452">
        <ele>340.92</ele>
        <time>2011-07-20T08:54:35Z</time>
      </trkpt>
      <trkpt lat="43.07843" lon="1.9937">
        <ele>339.96</ele>
        <time>2011-07-20T08:54:54Z</time>
      </trkpt>
      <trkpt lat="43.07862" lon="1.99295">
        <ele>340.92</ele>
        <time>2011-07-20T08:55:12Z</time>
      </trkpt>
      <trkpt lat="43.07884" lon="1.99228">
        <ele>339</ele>
        <time>2011-07-20T08:55:27Z</time>
      </trkpt>
      <trkpt lat="43.07893" lon="1.99209">
        <ele>339</ele>
        <time>2011-07-20T08:55:31Z</time>
      </trkpt>
      <trkpt lat="43.07919" lon="1.99167">
        <ele>338.04</ele>
        <time>2011-07-20T08:55:40Z</time>
      </trkpt>
      <trkpt lat="43.07951" lon="1.99096">
        <ele>339</ele>
        <time>2011-07-20T08:55:56Z</time>
      </trkpt>
      <trkpt lat="43.07976" lon="1.99041">
        <ele>338.04</ele>
        <time>2011-07-20T08:56:10Z</time>
      </trkpt>
      <trkpt lat="43.07986" lon="1.99024">
        <ele>338.04</ele>
        <time>2011-07-20T08:56:14Z</time>
      </trkpt>
      <trkpt lat="43.07993" lon="1.99005">
        <ele>338.04</ele>
        <time>2011-07-20T08:56:18Z</time>
      </trkpt>
      <trkpt lat="43.08017" lon="1.98947">
        <ele>337.08</ele>
        <time>2011-07-20T08:56:32Z</time>
      </trkpt>
      <trkpt lat="43.08027" lon="1.98923">
        <ele>336.12</ele>
        <time>2011-07-20T08:56:37Z</time>
      </trkpt>
      <trkpt lat="43.08032" lon="1.98915">
        <ele>335.16</ele>
        <time>2011-07-20T08:56:39Z</time>
      </trkpt>
      <trkpt lat="43.08035" lon="1.98913">
        <ele>335.16</ele>
        <time>2011-07-20T08:56:40Z</time>
      </trkpt>
      <trkpt lat="43.08038" lon="1.98913">
        <ele>335.16</ele>
        <time>2011-07-20T08:56:41Z</time>
      </trkpt>
      <trkpt lat="43.08076" lon="1.98926">
        <ele>336.6</ele>
        <time>2011-07-20T08:56:53Z</time>
      </trkpt>
      <trkpt lat="43.08078" lon="1.9893">
        <ele>336.6</ele>
        <time>2011-07-20T08:56:54Z</time>
      </trkpt>
      <trkpt lat="43.08092" lon="1.98984">
        <ele>338.52</ele>
        <time>2011-07-20T08:57:08Z</time>
      </trkpt>
      <trkpt lat="43.08102" lon="1.99036">
        <ele>339.48</ele>
        <time>2011-07-20T08:57:21Z</time>
      </trkpt>
      <trkpt lat="43.08108" lon="1.99088">
        <ele>340.92</ele>
        <time>2011-07-20T08:57:34Z</time>
      </trkpt>
      <trkpt lat="43.08102" lon="1.99128">
        <ele>341.41</ele>
        <time>2011-07-20T08:57:45Z</time>
      </trkpt>
      <trkpt lat="43.08114" lon="1.99192">
        <ele>340.44</ele>
        <time>2011-07-20T08:57:58Z</time>
      </trkpt>
      <trkpt lat="43.08138" lon="1.99245">
        <ele>342.37</ele>
        <time>2011-07-20T08:58:11Z</time>
      </trkpt>
      <trkpt lat="43.08142" lon="1.99303">
        <ele>344.29</ele>
        <time>2011-07-20T08:58:27Z</time>
      </trkpt>
      <trkpt lat="43.08164" lon="1.99351">
        <ele>343.81</ele>
        <time>2011-07-20T08:58:39Z</time>
      </trkpt>
      <trkpt lat="43.08172" lon="1.99363">
        <ele>342.85</ele>
        <time>2011-07-20T08:58:41Z</time>
      </trkpt>
      <trkpt lat="43.08204" lon="1.99426">
        <ele>340.92</ele>
        <time>2011-07-20T08:58:51Z</time>
      </trkpt>
      <trkpt lat="43.0823" lon="1.99475">
        <ele>341.41</ele>
        <time>2011-07-20T08:59:03Z</time>
      </trkpt>
      <trkpt lat="43.08257" lon="1.99528">
        <ele>343.33</ele>
        <time>2011-07-20T08:59:20Z</time>
      </trkpt>
      <trkpt lat="43.08274" lon="1.9956">
        <ele>346.21</ele>
        <time>2011-07-20T08:59:32Z</time>
      </trkpt>
      <trkpt lat="43.08279" lon="1.99568">
        <ele>346.69</ele>
        <time>2011-07-20T08:59:35Z</time>
      </trkpt>
      <trkpt lat="43.08304" lon="1.9961">
        <ele>347.65</ele>
        <time>2011-07-20T08:59:51Z</time>
      </trkpt>
      <trkpt lat="43.08348" lon="1.99633">
        <ele>345.25</ele>
        <time>2011-07-20T09:00:02Z</time>
      </trkpt>
      <trkpt lat="43.08362" lon="1.9964">
        <ele>344.77</ele>
        <time>2011-07-20T09:00:05Z</time>
      </trkpt>
      <trkpt lat="43.08371" lon="1.99643">
        <ele>344.77</ele>
        <time>2011-07-20T09:00:07Z</time>
      </trkpt>
      <trkpt lat="43.08398" lon="1.99652">
        <ele>343.81</ele>
        <time>2011-07-20T09:00:13Z</time>
      </trkpt>
      <trkpt lat="43.08442" lon="1.99666">
        <ele>344.29</ele>
        <time>2011-07-20T09:00:24Z</time>
      </trkpt>
      <trkpt lat="43.08476" lon="1.9968">
        <ele>345.25</ele>
        <time>2011-07-20T09:00:37Z</time>
      </trkpt>
      <trkpt lat="43.08515" lon="1.99673">
        <ele>346.69</ele>
        <time>2011-07-20T09:00:50Z</time>
      </trkpt>
      <trkpt lat="43.08554" lon="1.99658">
        <ele>344.29</ele>
        <time>2011-07-20T09:01:03Z</time>
      </trkpt>
      <trkpt lat="43.08579" lon="1.99661">
        <ele>343.81</ele>
        <time>2011-07-20T09:01:11Z</time>
      </trkpt>
      <trkpt lat="43.08596" lon="1.99697">
        <ele>345.73</ele>
        <time>2011-07-20T09:01:25Z</time>
      </trkpt>
      <trkpt lat="43.08596" lon="1.99699">
        <ele>345.73</ele>
        <time>2011-07-20T09:01:26Z</time>
      </trkpt>
      <trkpt lat="43.08598" lon="1.99704">
        <ele>346.21</ele>
        <time>2011-07-20T09:01:28Z</time>
      </trkpt>
      <trkpt lat="43.08615" lon="1.99731">
        <ele>348.13</ele>
        <time>2011-07-20T09:01:41Z</time>
      </trkpt>
      <trkpt lat="43.08617" lon="1.99732">
        <ele>348.62</ele>
        <time>2011-07-20T09:01:42Z</time>
      </trkpt>
      <trkpt lat="43.08632" lon="1.9976">
        <ele>348.62</ele>
        <time>2011-07-20T09:01:54Z</time>
      </trkpt>
      <trkpt lat="43.08634" lon="1.99775">
        <ele>348.62</ele>
        <time>2011-07-20T09:02:01Z</time>
      </trkpt>
      <trkpt lat="43.08635" lon="1.99779">
        <ele>348.62</ele>
        <time>2011-07-20T09:02:03Z</time>
      </trkpt>
      <trkpt lat="43.08636" lon="1.9978">
        <ele>348.62</ele>
        <time>2011-07-20T09:02:04Z</time>
      </trkpt>
      <trkpt lat="43.08639" lon="1.99787">
        <ele>349.1</ele>
        <time>2011-07-20T09:02:07Z</time>
      </trkpt>
      <trkpt lat="43.08658" lon="1.9986">
        <ele>350.06</ele>
        <time>2011-07-20T09:02:24Z</time>
      </trkpt>
      <trkpt lat="43.08676" lon="1.99932">
        <ele>351.02</ele>
        <time>2011-07-20T09:02:40Z</time>
      </trkpt>
      <trkpt lat="43.08677" lon="1.99936">
        <ele>351.02</ele>
        <time>2011-07-20T09:02:41Z</time>
      </trkpt>
      <trkpt lat="43.08676" lon="1.99941">
        <ele>351.02</ele>
        <time>2011-07-20T09:02:42Z</time>
      </trkpt>
      <trkpt lat="43.08677" lon="1.99945">
        <ele>351.02</ele>
        <time>2011-07-20T09:02:43Z</time>
      </trkpt>
      <trkpt lat="43.08679" lon="1.99949">
        <ele>351.02</ele>
        <time>2011-07-20T09:02:44Z</time>
      </trkpt>
      <trkpt lat="43.0868" lon="1.99954">
        <ele>351.02</ele>
        <time>2011-07-20T09:02:45Z</time>
      </trkpt>
      <trkpt lat="43.08683" lon="1.99968">
        <ele>351.02</ele>
        <time>2011-07-20T09:02:55Z</time>
      </trkpt>
      <trkpt lat="43.08689" lon="1.99992">
        <ele>351.5</ele>
        <time>2011-07-20T09:03:28Z</time>
      </trkpt>
      <trkpt lat="43.08693" lon="2.00014">
        <ele>351.5</ele>
        <time>2011-07-20T09:03:34Z</time>
      </trkpt>
      <trkpt lat="43.08697" lon="2.00073">
        <ele>351.98</ele>
        <time>2011-07-20T09:03:49Z</time>
      </trkpt>
      <trkpt lat="43.0871" lon="2.00143">
        <ele>352.94</ele>
        <time>2011-07-20T09:04:04Z</time>
      </trkpt>
      <trkpt lat="43.08714" lon="2.00211">
        <ele>353.9</ele>
        <time>2011-07-20T09:04:18Z</time>
      </trkpt>
      <trkpt lat="43.08715" lon="2.00269">
        <ele>353.9</ele>
        <time>2011-07-20T09:04:30Z</time>
      </trkpt>
      <trkpt lat="43.08717" lon="2.00339">
        <ele>354.86</ele>
        <time>2011-07-20T09:04:44Z</time>
      </trkpt>
      <trkpt lat="43.08724" lon="2.00393">
        <ele>355.34</ele>
        <time>2011-07-20T09:04:55Z</time>
      </trkpt>
      <trkpt lat="43.08726" lon="2.00455">
        <ele>356.79</ele>
        <time>2011-07-20T09:05:07Z</time>
      </trkpt>
      <trkpt lat="43.08732" lon="2.00515">
        <ele>356.79</ele>
        <time>2011-07-20T09:05:19Z</time>
      </trkpt>
      <trkpt lat="43.0875" lon="2.00599">
        <ele>357.27</ele>
        <time>2011-07-20T09:05:34Z</time>
      </trkpt>
      <trkpt lat="43.08758" lon="2.00634">
        <ele>357.27</ele>
        <time>2011-07-20T09:05:41Z</time>
      </trkpt>
      <trkpt lat="43.0876" lon="2.00636">
        <ele>357.75</ele>
        <time>2011-07-20T09:05:42Z</time>
      </trkpt>
      <trkpt lat="43.08763" lon="2.00635">
        <ele>357.27</ele>
        <time>2011-07-20T09:05:43Z</time>
      </trkpt>
      <trkpt lat="43.08766" lon="2.00633">
        <ele>357.75</ele>
        <time>2011-07-20T09:05:44Z</time>
      </trkpt>
      <trkpt lat="43.08789" lon="2.00614">
        <ele>359.19</ele>
        <time>2011-07-20T09:05:54Z</time>
      </trkpt>
      <trkpt lat="43.08826" lon="2.00582">
        <ele>359.67</ele>
        <time>2011-07-20T09:06:11Z</time>
      </trkpt>
      <trkpt lat="43.08833" lon="2.00579">
        <ele>361.11</ele>
        <time>2011-07-20T09:06:24Z</time>
      </trkpt>
      <trkpt lat="43.08848" lon="2.00565">
        <ele>362.55</ele>
        <time>2011-07-20T09:07:06Z</time>
      </trkpt>
      <trkpt lat="43.08856" lon="2.0055">
        <ele>365.92</ele>
        <time>2011-07-20T09:07:11Z</time>
      </trkpt>
      <trkpt lat="43.08869" lon="2.00535">
        <ele>369.28</ele>
        <time>2011-07-20T09:07:17Z</time>
      </trkpt>
      <trkpt lat="43.08888" lon="2.00508">
        <ele>373.13</ele>
        <time>2011-07-20T09:07:27Z</time>
      </trkpt>
      <trkpt lat="43.0889" lon="2.00508">
        <ele>373.13</ele>
        <time>2011-07-20T09:07:28Z</time>
      </trkpt>
      <trkpt lat="43.08893" lon="2.00508">
        <ele>374.09</ele>
        <time>2011-07-20T09:07:29Z</time>
      </trkpt>
      <trkpt lat="43.08896" lon="2.00508">
        <ele>374.09</ele>
        <time>2011-07-20T09:07:30Z</time>
      </trkpt>
      <trkpt lat="43.08898" lon="2.00507">
        <ele>375.05</ele>
        <time>2011-07-20T09:07:31Z</time>
      </trkpt>
      <trkpt lat="43.08901" lon="2.00505">
        <ele>375.53</ele>
        <time>2011-07-20T09:07:32Z</time>
      </trkpt>
      <trkpt lat="43.08903" lon="2.00504">
        <ele>375.53</ele>
        <time>2011-07-20T09:07:33Z</time>
      </trkpt>
      <trkpt lat="43.08906" lon="2.00503">
        <ele>375.53</ele>
        <time>2011-07-20T09:07:34Z</time>
      </trkpt>
      <trkpt lat="43.08925" lon="2.00492">
        <ele>378.42</ele>
        <time>2011-07-20T09:07:47Z</time>
      </trkpt>
      <trkpt lat="43.08942" lon="2.00485">
        <ele>381.3</ele>
        <time>2011-07-20T09:08:06Z</time>
      </trkpt>
      <trkpt lat="43.08947" lon="2.00482">
        <ele>382.26</ele>
        <time>2011-07-20T09:08:10Z</time>
      </trkpt>
      <trkpt lat="43.08952" lon="2.00482">
        <ele>381.78</ele>
        <time>2011-07-20T09:08:13Z</time>
      </trkpt>
      <trkpt lat="43.08955" lon="2.00481">
        <ele>383.22</ele>
        <time>2011-07-20T09:08:15Z</time>
      </trkpt>
      <trkpt lat="43.08957" lon="2.00481">
        <ele>383.22</ele>
        <time>2011-07-20T09:08:16Z</time>
      </trkpt>
      <trkpt lat="43.08959" lon="2.00481">
        <ele>383.22</ele>
        <time>2011-07-20T09:08:17Z</time>
      </trkpt>
      <trkpt lat="43.0896" lon="2.0048">
        <ele>383.22</ele>
        <time>2011-07-20T09:08:18Z</time>
      </trkpt>
      <trkpt lat="43.08962" lon="2.00479">
        <ele>383.22</ele>
        <time>2011-07-20T09:08:38Z</time>
      </trkpt>
      <trkpt lat="43.08966" lon="2.00479">
        <ele>383.22</ele>
        <time>2011-07-20T09:09:10Z</time>
      </trkpt>
      <trkpt lat="43.08967" lon="2.00479">
        <ele>383.7</ele>
        <time>2011-07-20T09:09:11Z</time>
      </trkpt>
      <trkpt lat="43.08992" lon="2.00461">
        <ele>383.22</ele>
        <time>2011-07-20T09:09:23Z</time>
      </trkpt>
      <trkpt lat="43.0903" lon="2.00433">
        <ele>385.15</ele>
        <time>2011-07-20T09:09:42Z</time>
      </trkpt>
      <trkpt lat="43.09035" lon="2.00431">
        <ele>386.11</ele>
        <time>2011-07-20T09:10:00Z</time>
      </trkpt>
      <trkpt lat="43.09035" lon="2.00431">
        <ele>387.07</ele>
        <time>2011-07-20T09:18:56Z</time>
      </trkpt>
      <trkpt lat="43.09046" lon="2.00428">
        <ele>390.43</ele>
        <time>2011-07-20T09:20:41Z</time>
      </trkpt>
      <trkpt lat="43.09054" lon="2.00423">
        <ele>392.84</ele>
        <time>2011-07-20T09:20:47Z</time>
      </trkpt>
      <trkpt lat="43.0906" lon="2.00418">
        <ele>394.28</ele>
        <time>2011-07-20T09:20:50Z</time>
      </trkpt>
      <trkpt lat="43.09071" lon="2.00415">
        <ele>395.24</ele>
        <time>2011-07-20T09:20:56Z</time>
      </trkpt>
      <trkpt lat="43.09076" lon="2.00412">
        <ele>396.2</ele>
        <time>2011-07-20T09:20:59Z</time>
      </trkpt>
      <trkpt lat="43.09077" lon="2.00411">
        <ele>396.2</ele>
        <time>2011-07-20T09:21:00Z</time>
      </trkpt>
      <trkpt lat="43.09078" lon="2.0041">
        <ele>397.16</ele>
        <time>2011-07-20T09:21:01Z</time>
      </trkpt>
      <trkpt lat="43.0908" lon="2.00408">
        <ele>397.64</ele>
        <time>2011-07-20T09:21:03Z</time>
      </trkpt>
      <trkpt lat="43.09083" lon="2.00407">
        <ele>398.12</ele>
        <time>2011-07-20T09:21:08Z</time>
      </trkpt>
      <trkpt lat="43.09091" lon="2.00402">
        <ele>397.64</ele>
        <time>2011-07-20T09:21:14Z</time>
      </trkpt>
      <trkpt lat="43.09092" lon="2.00403">
        <ele>397.16</ele>
        <time>2011-07-20T09:21:15Z</time>
      </trkpt>
      <trkpt lat="43.09096" lon="2.004">
        <ele>398.6</ele>
        <time>2011-07-20T09:21:21Z</time>
      </trkpt>
      <trkpt lat="43.09097" lon="2.004">
        <ele>398.6</ele>
        <time>2011-07-20T09:21:22Z</time>
      </trkpt>
      <trkpt lat="43.091" lon="2.00399">
        <ele>398.6</ele>
        <time>2011-07-20T09:21:24Z</time>
      </trkpt>
      <trkpt lat="43.09108" lon="2.00394">
        <ele>399.08</ele>
        <time>2011-07-20T09:21:29Z</time>
      </trkpt>
      <trkpt lat="43.09131" lon="2.00378">
        <ele>399.08</ele>
        <time>2011-07-20T09:21:40Z</time>
      </trkpt>
      <trkpt lat="43.0917" lon="2.00359">
        <ele>399.08</ele>
        <time>2011-07-20T09:21:58Z</time>
      </trkpt>
      <trkpt lat="43.09185" lon="2.00351">
        <ele>399.08</ele>
        <time>2011-07-20T09:22:09Z</time>
      </trkpt>
      <trkpt lat="43.09185" lon="2.0035">
        <ele>399.08</ele>
        <time>2011-07-20T09:22:10Z</time>
      </trkpt>
      <trkpt lat="43.09185" lon="2.00346">
        <ele>398.6</ele>
        <time>2011-07-20T09:22:27Z</time>
      </trkpt>
      <trkpt lat="43.09186" lon="2.00344">
        <ele>399.08</ele>
        <time>2011-07-20T09:23:02Z</time>
      </trkpt>
      <trkpt lat="43.09195" lon="2.00311">
        <ele>395.72</ele>
        <time>2011-07-20T09:23:10Z</time>
      </trkpt>
      <trkpt lat="43.09213" lon="2.00271">
        <ele>391.39</ele>
        <time>2011-07-20T09:23:16Z</time>
      </trkpt>
      <trkpt lat="43.09226" lon="2.00227">
        <ele>387.55</ele>
        <time>2011-07-20T09:23:20Z</time>
      </trkpt>
      <trkpt lat="43.09228" lon="2.00216">
        <ele>387.07</ele>
        <time>2011-07-20T09:23:21Z</time>
      </trkpt>
      <trkpt lat="43.09245" lon="2.00124">
        <ele>388.51</ele>
        <time>2011-07-20T09:23:31Z</time>
      </trkpt>
      <trkpt lat="43.09261" lon="2.00049">
        <ele>384.66</ele>
        <time>2011-07-20T09:23:41Z</time>
      </trkpt>
      <trkpt lat="43.09267" lon="2.00019">
        <ele>381.3</ele>
        <time>2011-07-20T09:23:44Z</time>
      </trkpt>
      <trkpt lat="43.09275" lon="1.99982">
        <ele>377.94</ele>
        <time>2011-07-20T09:23:47Z</time>
      </trkpt>
      <trkpt lat="43.09282" lon="1.99953">
        <ele>375.05</ele>
        <time>2011-07-20T09:23:49Z</time>
      </trkpt>
      <trkpt lat="43.09292" lon="1.99907">
        <ele>371.69</ele>
        <time>2011-07-20T09:23:52Z</time>
      </trkpt>
      <trkpt lat="43.09296" lon="1.99876">
        <ele>368.32</ele>
        <time>2011-07-20T09:23:54Z</time>
      </trkpt>
      <trkpt lat="43.09297" lon="1.99841">
        <ele>364.48</ele>
        <time>2011-07-20T09:23:56Z</time>
      </trkpt>
      <trkpt lat="43.09298" lon="1.99805">
        <ele>360.63</ele>
        <time>2011-07-20T09:23:58Z</time>
      </trkpt>
      <trkpt lat="43.09296" lon="1.99752">
        <ele>358.23</ele>
        <time>2011-07-20T09:24:01Z</time>
      </trkpt>
      <trkpt lat="43.09297" lon="1.99718">
        <ele>356.31</ele>
        <time>2011-07-20T09:24:03Z</time>
      </trkpt>
      <trkpt lat="43.09298" lon="1.99703">
        <ele>356.79</ele>
        <time>2011-07-20T09:24:04Z</time>
      </trkpt>
      <trkpt lat="43.09307" lon="1.99624">
        <ele>359.19</ele>
        <time>2011-07-20T09:24:12Z</time>
      </trkpt>
      <trkpt lat="43.09309" lon="1.9961">
        <ele>360.63</ele>
        <time>2011-07-20T09:24:15Z</time>
      </trkpt>
      <trkpt lat="43.09326" lon="1.99571">
        <ele>364</ele>
        <time>2011-07-20T09:24:27Z</time>
      </trkpt>
      <trkpt lat="43.09337" lon="1.9956">
        <ele>365.44</ele>
        <time>2011-07-20T09:24:32Z</time>
      </trkpt>
      <trkpt lat="43.09354" lon="1.99547">
        <ele>368.8</ele>
        <time>2011-07-20T09:24:38Z</time>
      </trkpt>
      <trkpt lat="43.0938" lon="1.99514">
        <ele>371.69</ele>
        <time>2011-07-20T09:24:49Z</time>
      </trkpt>
      <trkpt lat="43.09383" lon="1.9951">
        <ele>372.17</ele>
        <time>2011-07-20T09:24:50Z</time>
      </trkpt>
      <trkpt lat="43.09394" lon="1.99489">
        <ele>373.61</ele>
        <time>2011-07-20T09:24:58Z</time>
      </trkpt>
      <trkpt lat="43.09395" lon="1.99488">
        <ele>373.61</ele>
        <time>2011-07-20T09:24:59Z</time>
      </trkpt>
      <trkpt lat="43.09397" lon="1.99487">
        <ele>373.61</ele>
        <time>2011-07-20T09:25:00Z</time>
      </trkpt>
      <trkpt lat="43.09398" lon="1.99488">
        <ele>373.61</ele>
        <time>2011-07-20T09:25:01Z</time>
      </trkpt>
      <trkpt lat="43.09399" lon="1.99488">
        <ele>374.09</ele>
        <time>2011-07-20T09:25:02Z</time>
      </trkpt>
      <trkpt lat="43.09401" lon="1.99488">
        <ele>374.09</ele>
        <time>2011-07-20T09:25:03Z</time>
      </trkpt>
      <trkpt lat="43.09404" lon="1.99487">
        <ele>373.61</ele>
        <time>2011-07-20T09:25:04Z</time>
      </trkpt>
      <trkpt lat="43.09407" lon="1.99486">
        <ele>374.09</ele>
        <time>2011-07-20T09:25:05Z</time>
      </trkpt>
      <trkpt lat="43.0941" lon="1.99484">
        <ele>374.09</ele>
        <time>2011-07-20T09:25:06Z</time>
      </trkpt>
      <trkpt lat="43.09413" lon="1.99483">
        <ele>374.57</ele>
        <time>2011-07-20T09:25:07Z</time>
      </trkpt>
      <trkpt lat="43.09449" lon="1.99467">
        <ele>376.49</ele>
        <time>2011-07-20T09:25:22Z</time>
      </trkpt>
      <trkpt lat="43.09466" lon="1.99455">
        <ele>378.42</ele>
        <time>2011-07-20T09:25:33Z</time>
      </trkpt>
      <trkpt lat="43.09467" lon="1.99455">
        <ele>378.9</ele>
        <time>2011-07-20T09:25:34Z</time>
      </trkpt>
      <trkpt lat="43.09477" lon="1.9945">
        <ele>378.9</ele>
        <time>2011-07-20T09:25:40Z</time>
      </trkpt>
      <trkpt lat="43.09478" lon="1.99451">
        <ele>379.38</ele>
        <time>2011-07-20T09:25:41Z</time>
      </trkpt>
      <trkpt lat="43.0948" lon="1.9945">
        <ele>378.9</ele>
        <time>2011-07-20T09:25:42Z</time>
      </trkpt>
      <trkpt lat="43.09508" lon="1.9944">
        <ele>381.3</ele>
        <time>2011-07-20T09:26:01Z</time>
      </trkpt>
      <trkpt lat="43.09513" lon="1.99436">
        <ele>381.3</ele>
        <time>2011-07-20T09:26:06Z</time>
      </trkpt>
      <trkpt lat="43.09522" lon="1.99434">
        <ele>381.78</ele>
        <time>2011-07-20T09:26:28Z</time>
      </trkpt>
      <trkpt lat="43.0955" lon="1.99418">
        <ele>386.11</ele>
        <time>2011-07-20T09:26:44Z</time>
      </trkpt>
      <trkpt lat="43.09576" lon="1.99404">
        <ele>388.99</ele>
        <time>2011-07-20T09:26:58Z</time>
      </trkpt>
      <trkpt lat="43.09582" lon="1.99403">
        <ele>389.95</ele>
        <time>2011-07-20T09:27:02Z</time>
      </trkpt>
      <trkpt lat="43.09584" lon="1.99401">
        <ele>390.43</ele>
        <time>2011-07-20T09:27:03Z</time>
      </trkpt>
      <trkpt lat="43.09584" lon="1.99399">
        <ele>390.43</ele>
        <time>2011-07-20T09:27:04Z</time>
      </trkpt>
      <trkpt lat="43.09585" lon="1.99398">
        <ele>390.43</ele>
        <time>2011-07-20T09:27:05Z</time>
      </trkpt>
      <trkpt lat="43.09586" lon="1.99397">
        <ele>390.43</ele>
        <time>2011-07-20T09:27:06Z</time>
      </trkpt>
      <trkpt lat="43.09587" lon="1.99396">
        <ele>391.39</ele>
        <time>2011-07-20T09:27:07Z</time>
      </trkpt>
      <trkpt lat="43.09588" lon="1.99395">
        <ele>391.39</ele>
        <time>2011-07-20T09:27:08Z</time>
      </trkpt>
      <trkpt lat="43.0959" lon="1.99393">
        <ele>391.87</ele>
        <time>2011-07-20T09:27:10Z</time>
      </trkpt>
      <trkpt lat="43.09606" lon="1.99381">
        <ele>395.72</ele>
        <time>2011-07-20T09:27:25Z</time>
      </trkpt>
      <trkpt lat="43.09609" lon="1.9938">
        <ele>396.2</ele>
        <time>2011-07-20T09:27:28Z</time>
      </trkpt>
      <trkpt lat="43.09614" lon="1.99379">
        <ele>396.2</ele>
        <time>2011-07-20T09:27:35Z</time>
      </trkpt>
      <trkpt lat="43.09622" lon="1.99376">
        <ele>397.64</ele>
        <time>2011-07-20T09:27:47Z</time>
      </trkpt>
      <trkpt lat="43.09628" lon="1.99375">
        <ele>398.12</ele>
        <time>2011-07-20T09:28:03Z</time>
      </trkpt>
      <trkpt lat="43.09642" lon="1.99369">
        <ele>399.08</ele>
        <time>2011-07-20T09:28:13Z</time>
      </trkpt>
      <trkpt lat="43.09674" lon="1.99374">
        <ele>400.53</ele>
        <time>2011-07-20T09:28:30Z</time>
      </trkpt>
      <trkpt lat="43.09698" lon="1.99399">
        <ele>403.41</ele>
        <time>2011-07-20T09:28:45Z</time>
      </trkpt>
      <trkpt lat="43.09719" lon="1.99414">
        <ele>404.85</ele>
        <time>2011-07-20T09:28:57Z</time>
      </trkpt>
      <trkpt lat="43.0972" lon="1.99419">
        <ele>405.33</ele>
        <time>2011-07-20T09:29:00Z</time>
      </trkpt>
      <trkpt lat="43.09721" lon="1.9942">
        <ele>405.33</ele>
        <time>2011-07-20T09:29:01Z</time>
      </trkpt>
      <trkpt lat="43.09722" lon="1.99422">
        <ele>405.33</ele>
        <time>2011-07-20T09:29:02Z</time>
      </trkpt>
      <trkpt lat="43.09743" lon="1.99431">
        <ele>404.85</ele>
        <time>2011-07-20T09:29:14Z</time>
      </trkpt>
      <trkpt lat="43.09745" lon="1.9943">
        <ele>405.33</ele>
        <time>2011-07-20T09:29:15Z</time>
      </trkpt>
      <trkpt lat="43.09744" lon="1.99427">
        <ele>404.85</ele>
        <time>2011-07-20T09:29:16Z</time>
      </trkpt>
      <trkpt lat="43.09742" lon="1.99423">
        <ele>404.85</ele>
        <time>2011-07-20T09:29:30Z</time>
      </trkpt>
      <trkpt lat="43.09741" lon="1.99423">
        <ele>403.89</ele>
        <time>2011-07-20T09:29:35Z</time>
      </trkpt>
      <trkpt lat="43.09739" lon="1.99423">
        <ele>403.89</ele>
        <time>2011-07-20T09:29:36Z</time>
      </trkpt>
      <trkpt lat="43.09738" lon="1.99424">
        <ele>404.37</ele>
        <time>2011-07-20T09:29:37Z</time>
      </trkpt>
      <trkpt lat="43.09737" lon="1.99425">
        <ele>403.89</ele>
        <time>2011-07-20T09:29:38Z</time>
      </trkpt>
      <trkpt lat="43.09737" lon="1.99427">
        <ele>404.37</ele>
        <time>2011-07-20T09:29:39Z</time>
      </trkpt>
      <trkpt lat="43.09738" lon="1.99429">
        <ele>404.37</ele>
        <time>2011-07-20T09:29:40Z</time>
      </trkpt>
      <trkpt lat="43.09739" lon="1.99429">
        <ele>404.37</ele>
        <time>2011-07-20T09:29:41Z</time>
      </trkpt>
      <trkpt lat="43.0974" lon="1.9943">
        <ele>404.37</ele>
        <time>2011-07-20T09:29:42Z</time>
      </trkpt>
      <trkpt lat="43.09742" lon="1.99429">
        <ele>404.37</ele>
        <time>2011-07-20T09:29:43Z</time>
      </trkpt>
      <trkpt lat="43.09742" lon="1.99428">
        <ele>404.37</ele>
        <time>2011-07-20T09:29:44Z</time>
      </trkpt>
      <trkpt lat="43.09741" lon="1.99425">
        <ele>404.85</ele>
        <time>2011-07-20T09:30:01Z</time>
      </trkpt>
      <trkpt lat="43.0974" lon="1.99425">
        <ele>404.85</ele>
        <time>2011-07-20T09:30:26Z</time>
      </trkpt>
      <trkpt lat="43.09743" lon="1.99427">
        <ele>404.85</ele>
        <time>2011-07-20T09:30:30Z</time>
      </trkpt>
      <trkpt lat="43.09745" lon="1.99428">
        <ele>404.85</ele>
        <time>2011-07-20T09:30:31Z</time>
      </trkpt>
      <trkpt lat="43.09747" lon="1.99428">
        <ele>404.85</ele>
        <time>2011-07-20T09:30:32Z</time>
      </trkpt>
      <trkpt lat="43.0975" lon="1.99429">
        <ele>405.81</ele>
        <time>2011-07-20T09:30:33Z</time>
      </trkpt>
      <trkpt lat="43.09752" lon="1.9943">
        <ele>404.85</ele>
        <time>2011-07-20T09:30:34Z</time>
      </trkpt>
      <trkpt lat="43.09775" lon="1.99433">
        <ele>404.37</ele>
        <time>2011-07-20T09:30:40Z</time>
      </trkpt>
      <trkpt lat="43.0979" lon="1.99439">
        <ele>402.45</ele>
        <time>2011-07-20T09:30:43Z</time>
      </trkpt>
      <trkpt lat="43.09802" lon="1.99444">
        <ele>401.49</ele>
        <time>2011-07-20T09:30:45Z</time>
      </trkpt>
      <trkpt lat="43.09822" lon="1.99453">
        <ele>400.53</ele>
        <time>2011-07-20T09:30:48Z</time>
      </trkpt>
      <trkpt lat="43.09829" lon="1.99455">
        <ele>400.05</ele>
        <time>2011-07-20T09:30:49Z</time>
      </trkpt>
      <trkpt lat="43.0986" lon="1.99461">
        <ele>396.2</ele>
        <time>2011-07-20T09:30:53Z</time>
      </trkpt>
      <trkpt lat="43.09905" lon="1.99472">
        <ele>392.84</ele>
        <time>2011-07-20T09:30:58Z</time>
      </trkpt>
      <trkpt lat="43.09934" lon="1.99479">
        <ele>390.91</ele>
        <time>2011-07-20T09:31:01Z</time>
      </trkpt>
      <trkpt lat="43.09959" lon="1.99481">
        <ele>391.39</ele>
        <time>2011-07-20T09:31:04Z</time>
      </trkpt>
      <trkpt lat="43.09965" lon="1.99482">
        <ele>391.39</ele>
        <time>2011-07-20T09:31:05Z</time>
      </trkpt>
      <trkpt lat="43.10003" lon="1.99497">
        <ele>394.28</ele>
        <time>2011-07-20T09:31:16Z</time>
      </trkpt>
      <trkpt lat="43.1006" lon="1.99522">
        <ele>396.68</ele>
        <time>2011-07-20T09:31:38Z</time>
      </trkpt>
      <trkpt lat="43.10086" lon="1.99542">
        <ele>399.08</ele>
        <time>2011-07-20T09:31:52Z</time>
      </trkpt>
      <trkpt lat="43.10106" lon="1.99583">
        <ele>401.49</ele>
        <time>2011-07-20T09:32:06Z</time>
      </trkpt>
      <trkpt lat="43.10117" lon="1.99638">
        <ele>403.41</ele>
        <time>2011-07-20T09:32:21Z</time>
      </trkpt>
      <trkpt lat="43.10122" lon="1.99671">
        <ele>404.85</ele>
        <time>2011-07-20T09:32:30Z</time>
      </trkpt>
      <trkpt lat="43.10132" lon="1.99718">
        <ele>408.22</ele>
        <time>2011-07-20T09:32:48Z</time>
      </trkpt>
      <trkpt lat="43.10133" lon="1.99719">
        <ele>408.7</ele>
        <time>2011-07-20T09:32:49Z</time>
      </trkpt>
      <trkpt lat="43.10138" lon="1.99719">
        <ele>410.14</ele>
        <time>2011-07-20T09:33:04Z</time>
      </trkpt>
      <trkpt lat="43.1014" lon="1.99717">
        <ele>409.66</ele>
        <time>2011-07-20T09:33:06Z</time>
      </trkpt>
      <trkpt lat="43.10141" lon="1.99717">
        <ele>409.66</ele>
        <time>2011-07-20T09:33:19Z</time>
      </trkpt>
      <trkpt lat="43.10142" lon="1.99718">
        <ele>410.14</ele>
        <time>2011-07-20T09:33:34Z</time>
      </trkpt>
      <trkpt lat="43.10143" lon="1.99717">
        <ele>410.14</ele>
        <time>2011-07-20T09:33:35Z</time>
      </trkpt>
      <trkpt lat="43.10145" lon="1.99717">
        <ele>410.14</ele>
        <time>2011-07-20T09:33:36Z</time>
      </trkpt>
      <trkpt lat="43.10146" lon="1.99716">
        <ele>410.14</ele>
        <time>2011-07-20T09:33:37Z</time>
      </trkpt>
      <trkpt lat="43.10148" lon="1.99715">
        <ele>410.14</ele>
        <time>2011-07-20T09:33:38Z</time>
      </trkpt>
      <trkpt lat="43.10149" lon="1.99713">
        <ele>410.62</ele>
        <time>2011-07-20T09:33:39Z</time>
      </trkpt>
      <trkpt lat="43.10175" lon="1.99697">
        <ele>414.47</ele>
        <time>2011-07-20T09:33:53Z</time>
      </trkpt>
      <trkpt lat="43.10176" lon="1.99695">
        <ele>414.47</ele>
        <time>2011-07-20T09:33:54Z</time>
      </trkpt>
      <trkpt lat="43.10178" lon="1.99677">
        <ele>416.39</ele>
        <time>2011-07-20T09:34:01Z</time>
      </trkpt>
      <trkpt lat="43.1018" lon="1.99675">
        <ele>416.87</ele>
        <time>2011-07-20T09:34:02Z</time>
      </trkpt>
      <trkpt lat="43.10182" lon="1.99674">
        <ele>417.35</ele>
        <time>2011-07-20T09:34:03Z</time>
      </trkpt>
      <trkpt lat="43.10184" lon="1.99673">
        <ele>417.83</ele>
        <time>2011-07-20T09:34:04Z</time>
      </trkpt>
      <trkpt lat="43.10186" lon="1.99673">
        <ele>418.31</ele>
        <time>2011-07-20T09:34:05Z</time>
      </trkpt>
      <trkpt lat="43.10188" lon="1.99674">
        <ele>418.31</ele>
        <time>2011-07-20T09:34:06Z</time>
      </trkpt>
      <trkpt lat="43.1019" lon="1.99675">
        <ele>418.31</ele>
        <time>2011-07-20T09:34:07Z</time>
      </trkpt>
      <trkpt lat="43.10192" lon="1.99677">
        <ele>418.79</ele>
        <time>2011-07-20T09:34:08Z</time>
      </trkpt>
      <trkpt lat="43.10211" lon="1.99694">
        <ele>420.71</ele>
        <time>2011-07-20T09:34:20Z</time>
      </trkpt>
      <trkpt lat="43.10228" lon="1.99714">
        <ele>423.6</ele>
        <time>2011-07-20T09:34:33Z</time>
      </trkpt>
      <trkpt lat="43.10243" lon="1.99739">
        <ele>426.96</ele>
        <time>2011-07-20T09:34:44Z</time>
      </trkpt>
      <trkpt lat="43.10253" lon="1.99771">
        <ele>428.4</ele>
        <time>2011-07-20T09:34:57Z</time>
      </trkpt>
      <trkpt lat="43.10255" lon="1.99773">
        <ele>429.85</ele>
        <time>2011-07-20T09:34:58Z</time>
      </trkpt>
      <trkpt lat="43.1027" lon="1.99789">
        <ele>431.29</ele>
        <time>2011-07-20T09:35:10Z</time>
      </trkpt>
      <trkpt lat="43.1028" lon="1.99785">
        <ele>431.29</ele>
        <time>2011-07-20T09:35:15Z</time>
      </trkpt>
      <trkpt lat="43.10293" lon="1.99775">
        <ele>432.73</ele>
        <time>2011-07-20T09:35:23Z</time>
      </trkpt>
      <trkpt lat="43.10293" lon="1.99773">
        <ele>432.73</ele>
        <time>2011-07-20T09:35:24Z</time>
      </trkpt>
      <trkpt lat="43.10308" lon="1.99749">
        <ele>434.17</ele>
        <time>2011-07-20T09:35:38Z</time>
      </trkpt>
      <trkpt lat="43.10309" lon="1.99747">
        <ele>434.17</ele>
        <time>2011-07-20T09:35:39Z</time>
      </trkpt>
      <trkpt lat="43.10309" lon="1.99745">
        <ele>434.17</ele>
        <time>2011-07-20T09:35:40Z</time>
      </trkpt>
      <trkpt lat="43.10318" lon="1.99701">
        <ele>435.13</ele>
        <time>2011-07-20T09:35:56Z</time>
      </trkpt>
      <trkpt lat="43.10333" lon="1.99675">
        <ele>437.54</ele>
        <time>2011-07-20T09:36:13Z</time>
      </trkpt>
      <trkpt lat="43.10333" lon="1.99676">
        <ele>441.38</ele>
        <time>2011-07-20T09:36:43Z</time>
      </trkpt>
      <trkpt lat="43.10335" lon="1.99676">
        <ele>438.5</ele>
        <time>2011-07-20T09:37:04Z</time>
      </trkpt>
      <trkpt lat="43.10362" lon="1.99673">
        <ele>437.06</ele>
        <time>2011-07-20T09:37:16Z</time>
      </trkpt>
      <trkpt lat="43.10408" lon="1.99674">
        <ele>438.02</ele>
        <time>2011-07-20T09:37:35Z</time>
      </trkpt>
      <trkpt lat="43.10449" lon="1.9967">
        <ele>440.42</ele>
        <time>2011-07-20T09:37:53Z</time>
      </trkpt>
      <trkpt lat="43.10502" lon="1.99667">
        <ele>439.94</ele>
        <time>2011-07-20T09:38:12Z</time>
      </trkpt>
      <trkpt lat="43.10547" lon="1.99666">
        <ele>436.1</ele>
        <time>2011-07-20T09:38:24Z</time>
      </trkpt>
      <trkpt lat="43.10552" lon="1.99666">
        <ele>435.61</ele>
        <time>2011-07-20T09:38:25Z</time>
      </trkpt>
      <trkpt lat="43.1058" lon="1.99667">
        <ele>431.77</ele>
        <time>2011-07-20T09:38:29Z</time>
      </trkpt>
      <trkpt lat="43.10595" lon="1.99666">
        <ele>430.81</ele>
        <time>2011-07-20T09:38:31Z</time>
      </trkpt>
      <trkpt lat="43.10602" lon="1.99667">
        <ele>431.29</ele>
        <time>2011-07-20T09:38:32Z</time>
      </trkpt>
      <trkpt lat="43.10667" lon="1.99691">
        <ele>433.69</ele>
        <time>2011-07-20T09:38:44Z</time>
      </trkpt>
      <trkpt lat="43.1067" lon="1.99693">
        <ele>434.17</ele>
        <time>2011-07-20T09:38:45Z</time>
      </trkpt>
      <trkpt lat="43.10686" lon="1.997">
        <ele>437.06</ele>
        <time>2011-07-20T09:38:52Z</time>
      </trkpt>
      <trkpt lat="43.10691" lon="1.99702">
        <ele>435.61</ele>
        <time>2011-07-20T09:38:54Z</time>
      </trkpt>
      <trkpt lat="43.1073" lon="1.99717">
        <ele>437.54</ele>
        <time>2011-07-20T09:39:13Z</time>
      </trkpt>
      <trkpt lat="43.10771" lon="1.99725">
        <ele>438.5</ele>
        <time>2011-07-20T09:39:34Z</time>
      </trkpt>
      <trkpt lat="43.10801" lon="1.99731">
        <ele>441.86</ele>
        <time>2011-07-20T09:39:50Z</time>
      </trkpt>
      <trkpt lat="43.10825" lon="1.99718">
        <ele>441.38</ele>
        <time>2011-07-20T09:40:00Z</time>
      </trkpt>
      <trkpt lat="43.10864" lon="1.997">
        <ele>444.27</ele>
        <time>2011-07-20T09:40:11Z</time>
      </trkpt>
      <trkpt lat="43.10888" lon="1.99693">
        <ele>445.71</ele>
        <time>2011-07-20T09:40:20Z</time>
      </trkpt>
      <trkpt lat="43.10889" lon="1.99694">
        <ele>446.19</ele>
        <time>2011-07-20T09:40:21Z</time>
      </trkpt>
      <trkpt lat="43.1089" lon="1.99694">
        <ele>445.71</ele>
        <time>2011-07-20T09:40:26Z</time>
      </trkpt>
      <trkpt lat="43.10889" lon="1.99692">
        <ele>445.71</ele>
        <time>2011-07-20T09:40:27Z</time>
      </trkpt>
      <trkpt lat="43.10887" lon="1.99686">
        <ele>445.71</ele>
        <time>2011-07-20T09:40:46Z</time>
      </trkpt>
      <trkpt lat="43.10887" lon="1.99685">
        <ele>445.71</ele>
        <time>2011-07-20T09:40:59Z</time>
      </trkpt>
      <trkpt lat="43.10887" lon="1.99683">
        <ele>445.71</ele>
        <time>2011-07-20T09:41:00Z</time>
      </trkpt>
      <trkpt lat="43.10886" lon="1.99682">
        <ele>444.75</ele>
        <time>2011-07-20T09:41:01Z</time>
      </trkpt>
      <trkpt lat="43.10878" lon="1.99643">
        <ele>448.11</ele>
        <time>2011-07-20T09:41:14Z</time>
      </trkpt>
      <trkpt lat="43.10877" lon="1.9964">
        <ele>448.11</ele>
        <time>2011-07-20T09:41:15Z</time>
      </trkpt>
      <trkpt lat="43.1087" lon="1.99633">
        <ele>449.55</ele>
        <time>2011-07-20T09:41:19Z</time>
      </trkpt>
      <trkpt lat="43.10859" lon="1.99618">
        <ele>452.44</ele>
        <time>2011-07-20T09:41:35Z</time>
      </trkpt>
      <trkpt lat="43.10858" lon="1.99618">
        <ele>451.96</ele>
        <time>2011-07-20T09:41:36Z</time>
      </trkpt>
      <trkpt lat="43.10857" lon="1.99619">
        <ele>451.48</ele>
        <time>2011-07-20T09:41:37Z</time>
      </trkpt>
      <trkpt lat="43.10853" lon="1.99621">
        <ele>451</ele>
        <time>2011-07-20T09:41:55Z</time>
      </trkpt>
      <trkpt lat="43.10856" lon="1.99627">
        <ele>451.96</ele>
        <time>2011-07-20T09:43:23Z</time>
      </trkpt>
      <trkpt lat="43.10858" lon="1.99628">
        <ele>451.48</ele>
        <time>2011-07-20T09:43:24Z</time>
      </trkpt>
      <trkpt lat="43.1086" lon="1.99629">
        <ele>451</ele>
        <time>2011-07-20T09:43:25Z</time>
      </trkpt>
      <trkpt lat="43.10866" lon="1.99629">
        <ele>450.03</ele>
        <time>2011-07-20T09:43:28Z</time>
      </trkpt>
      <trkpt lat="43.10868" lon="1.9963">
        <ele>450.52</ele>
        <time>2011-07-20T09:43:29Z</time>
      </trkpt>
      <trkpt lat="43.10874" lon="1.99639">
        <ele>448.11</ele>
        <time>2011-07-20T09:43:43Z</time>
      </trkpt>
      <trkpt lat="43.10883" lon="1.99683">
        <ele>445.23</ele>
        <time>2011-07-20T09:43:54Z</time>
      </trkpt>
      <trkpt lat="43.10885" lon="1.99687">
        <ele>445.71</ele>
        <time>2011-07-20T09:43:55Z</time>
      </trkpt>
      <trkpt lat="43.10888" lon="1.99692">
        <ele>445.23</ele>
        <time>2011-07-20T09:43:56Z</time>
      </trkpt>
      <trkpt lat="43.10904" lon="1.99714">
        <ele>446.19</ele>
        <time>2011-07-20T09:44:04Z</time>
      </trkpt>
      <trkpt lat="43.10914" lon="1.99729">
        <ele>447.15</ele>
        <time>2011-07-20T09:44:10Z</time>
      </trkpt>
      <trkpt lat="43.10915" lon="1.99776">
        <ele>449.07</ele>
        <time>2011-07-20T09:44:24Z</time>
      </trkpt>
      <trkpt lat="43.10924" lon="1.99819">
        <ele>449.55</ele>
        <time>2011-07-20T09:44:37Z</time>
      </trkpt>
      <trkpt lat="43.10928" lon="1.99836">
        <ele>450.03</ele>
        <time>2011-07-20T09:44:43Z</time>
      </trkpt>
      <trkpt lat="43.10929" lon="1.99837">
        <ele>450.03</ele>
        <time>2011-07-20T09:44:44Z</time>
      </trkpt>
      <trkpt lat="43.10937" lon="1.99839">
        <ele>450.52</ele>
        <time>2011-07-20T09:44:49Z</time>
      </trkpt>
      <trkpt lat="43.10938" lon="1.99839">
        <ele>451</ele>
        <time>2011-07-20T09:44:50Z</time>
      </trkpt>
      <trkpt lat="43.1093" lon="1.99835">
        <ele>451</ele>
        <time>2011-07-20T09:44:56Z</time>
      </trkpt>
      <trkpt lat="43.10926" lon="1.99839">
        <ele>450.52</ele>
        <time>2011-07-20T09:44:58Z</time>
      </trkpt>
      <trkpt lat="43.10924" lon="1.99842">
        <ele>450.03</ele>
        <time>2011-07-20T09:44:59Z</time>
      </trkpt>
      <trkpt lat="43.10899" lon="1.99883">
        <ele>446.67</ele>
        <time>2011-07-20T09:45:06Z</time>
      </trkpt>
      <trkpt lat="43.10878" lon="1.99926">
        <ele>443.79</ele>
        <time>2011-07-20T09:45:11Z</time>
      </trkpt>
      <trkpt lat="43.10873" lon="1.99934">
        <ele>443.31</ele>
        <time>2011-07-20T09:45:12Z</time>
      </trkpt>
      <trkpt lat="43.10862" lon="1.99962">
        <ele>441.38</ele>
        <time>2011-07-20T09:45:15Z</time>
      </trkpt>
      <trkpt lat="43.10856" lon="1.9997">
        <ele>439.94</ele>
        <time>2011-07-20T09:45:16Z</time>
      </trkpt>
      <trkpt lat="43.10839" lon="1.99998">
        <ele>437.06</ele>
        <time>2011-07-20T09:45:19Z</time>
      </trkpt>
      <trkpt lat="43.10827" lon="2.00018">
        <ele>436.58</ele>
        <time>2011-07-20T09:45:21Z</time>
      </trkpt>
      <trkpt lat="43.10804" lon="2.00069">
        <ele>433.21</ele>
        <time>2011-07-20T09:45:26Z</time>
      </trkpt>
      <trkpt lat="43.108" lon="2.00078">
        <ele>432.73</ele>
        <time>2011-07-20T09:45:27Z</time>
      </trkpt>
      <trkpt lat="43.10791" lon="2.00097">
        <ele>432.25</ele>
        <time>2011-07-20T09:45:29Z</time>
      </trkpt>
      <trkpt lat="43.10786" lon="2.00105">
        <ele>431.77</ele>
        <time>2011-07-20T09:45:30Z</time>
      </trkpt>
      <trkpt lat="43.10776" lon="2.00123">
        <ele>430.81</ele>
        <time>2011-07-20T09:45:32Z</time>
      </trkpt>
      <trkpt lat="43.1077" lon="2.00132">
        <ele>431.29</ele>
        <time>2011-07-20T09:45:33Z</time>
      </trkpt>
      <trkpt lat="43.10763" lon="2.00154">
        <ele>428.89</ele>
        <time>2011-07-20T09:45:35Z</time>
      </trkpt>
      <trkpt lat="43.10762" lon="2.00166">
        <ele>428.4</ele>
        <time>2011-07-20T09:45:36Z</time>
      </trkpt>
      <trkpt lat="43.10762" lon="2.00201">
        <ele>426.48</ele>
        <time>2011-07-20T09:45:39Z</time>
      </trkpt>
      <trkpt lat="43.1076" lon="2.00212">
        <ele>426</ele>
        <time>2011-07-20T09:45:40Z</time>
      </trkpt>
      <trkpt lat="43.10758" lon="2.00223">
        <ele>425.52</ele>
        <time>2011-07-20T09:45:41Z</time>
      </trkpt>
      <trkpt lat="43.10745" lon="2.00259">
        <ele>423.6</ele>
        <time>2011-07-20T09:45:45Z</time>
      </trkpt>
      <trkpt lat="43.10733" lon="2.00286">
        <ele>421.68</ele>
        <time>2011-07-20T09:45:48Z</time>
      </trkpt>
      <trkpt lat="43.10728" lon="2.00305">
        <ele>421.19</ele>
        <time>2011-07-20T09:45:50Z</time>
      </trkpt>
      <trkpt lat="43.10735" lon="2.00338">
        <ele>419.75</ele>
        <time>2011-07-20T09:45:53Z</time>
      </trkpt>
      <trkpt lat="43.10724" lon="2.00402">
        <ele>415.43</ele>
        <time>2011-07-20T09:45:59Z</time>
      </trkpt>
      <trkpt lat="43.10721" lon="2.00411">
        <ele>413.98</ele>
        <time>2011-07-20T09:46:00Z</time>
      </trkpt>
      <trkpt lat="43.107" lon="2.00447">
        <ele>408.22</ele>
        <time>2011-07-20T09:46:04Z</time>
      </trkpt>
      <trkpt lat="43.10693" lon="2.00457">
        <ele>406.29</ele>
        <time>2011-07-20T09:46:05Z</time>
      </trkpt>
      <trkpt lat="43.10681" lon="2.00478">
        <ele>403.41</ele>
        <time>2011-07-20T09:46:07Z</time>
      </trkpt>
      <trkpt lat="43.10677" lon="2.00489">
        <ele>401.01</ele>
        <time>2011-07-20T09:46:08Z</time>
      </trkpt>
      <trkpt lat="43.10676" lon="2.00503">
        <ele>400.05</ele>
        <time>2011-07-20T09:46:09Z</time>
      </trkpt>
      <trkpt lat="43.10676" lon="2.00517">
        <ele>396.2</ele>
        <time>2011-07-20T09:46:10Z</time>
      </trkpt>
      <trkpt lat="43.10673" lon="2.00546">
        <ele>392.84</ele>
        <time>2011-07-20T09:46:12Z</time>
      </trkpt>
      <trkpt lat="43.1067" lon="2.00569">
        <ele>389.47</ele>
        <time>2011-07-20T09:46:14Z</time>
      </trkpt>
      <trkpt lat="43.10661" lon="2.00615">
        <ele>386.11</ele>
        <time>2011-07-20T09:46:18Z</time>
      </trkpt>
      <trkpt lat="43.10661" lon="2.00624">
        <ele>385.63</ele>
        <time>2011-07-20T09:46:19Z</time>
      </trkpt>
      <trkpt lat="43.10662" lon="2.00634">
        <ele>384.66</ele>
        <time>2011-07-20T09:46:21Z</time>
      </trkpt>
      <trkpt lat="43.10663" lon="2.00637">
        <ele>384.18</ele>
        <time>2011-07-20T09:46:33Z</time>
      </trkpt>
      <trkpt lat="43.10671" lon="2.00656">
        <ele>382.26</ele>
        <time>2011-07-20T09:46:49Z</time>
      </trkpt>
      <trkpt lat="43.10674" lon="2.0066">
        <ele>381.78</ele>
        <time>2011-07-20T09:46:50Z</time>
      </trkpt>
      <trkpt lat="43.10697" lon="2.00686">
        <ele>378.9</ele>
        <time>2011-07-20T09:46:55Z</time>
      </trkpt>
      <trkpt lat="43.10702" lon="2.00693">
        <ele>377.94</ele>
        <time>2011-07-20T09:46:56Z</time>
      </trkpt>
      <trkpt lat="43.10705" lon="2.00701">
        <ele>376.49</ele>
        <time>2011-07-20T09:46:57Z</time>
      </trkpt>
      <trkpt lat="43.10709" lon="2.00711">
        <ele>375.05</ele>
        <time>2011-07-20T09:46:58Z</time>
      </trkpt>
      <trkpt lat="43.1072" lon="2.00742">
        <ele>372.65</ele>
        <time>2011-07-20T09:47:01Z</time>
      </trkpt>
      <trkpt lat="43.10727" lon="2.00767">
        <ele>371.21</ele>
        <time>2011-07-20T09:47:04Z</time>
      </trkpt>
      <trkpt lat="43.10735" lon="2.00801">
        <ele>369.76</ele>
        <time>2011-07-20T09:47:08Z</time>
      </trkpt>
      <trkpt lat="43.10737" lon="2.00809">
        <ele>369.28</ele>
        <time>2011-07-20T09:47:09Z</time>
      </trkpt>
      <trkpt lat="43.10742" lon="2.00823">
        <ele>368.32</ele>
        <time>2011-07-20T09:47:11Z</time>
      </trkpt>
      <trkpt lat="43.10745" lon="2.00829">
        <ele>367.84</ele>
        <time>2011-07-20T09:47:12Z</time>
      </trkpt>
      <trkpt lat="43.10768" lon="2.00873">
        <ele>366.4</ele>
        <time>2011-07-20T09:47:22Z</time>
      </trkpt>
      <trkpt lat="43.10787" lon="2.00903">
        <ele>364</ele>
        <time>2011-07-20T09:47:28Z</time>
      </trkpt>
      <trkpt lat="43.10801" lon="2.00941">
        <ele>360.63</ele>
        <time>2011-07-20T09:47:33Z</time>
      </trkpt>
      <trkpt lat="43.10812" lon="2.00976">
        <ele>358.71</ele>
        <time>2011-07-20T09:47:37Z</time>
      </trkpt>
      <trkpt lat="43.10818" lon="2.00993">
        <ele>358.71</ele>
        <time>2011-07-20T09:47:39Z</time>
      </trkpt>
      <trkpt lat="43.10843" lon="2.01034">
        <ele>357.27</ele>
        <time>2011-07-20T09:47:45Z</time>
      </trkpt>
      <trkpt lat="43.10861" lon="2.01061">
        <ele>354.86</ele>
        <time>2011-07-20T09:47:50Z</time>
      </trkpt>
      <trkpt lat="43.10862" lon="2.01068">
        <ele>354.86</ele>
        <time>2011-07-20T09:47:51Z</time>
      </trkpt>
      <trkpt lat="43.10864" lon="2.01076">
        <ele>354.38</ele>
        <time>2011-07-20T09:47:52Z</time>
      </trkpt>
      <trkpt lat="43.10865" lon="2.01084">
        <ele>353.9</ele>
        <time>2011-07-20T09:47:53Z</time>
      </trkpt>
      <trkpt lat="43.10866" lon="2.0113">
        <ele>354.38</ele>
        <time>2011-07-20T09:47:59Z</time>
      </trkpt>
      <trkpt lat="43.10868" lon="2.01135">
        <ele>354.86</ele>
        <time>2011-07-20T09:48:00Z</time>
      </trkpt>
      <trkpt lat="43.1087" lon="2.01139">
        <ele>354.86</ele>
        <time>2011-07-20T09:48:01Z</time>
      </trkpt>
      <trkpt lat="43.10871" lon="2.01142">
        <ele>354.38</ele>
        <time>2011-07-20T09:48:02Z</time>
      </trkpt>
      <trkpt lat="43.10874" lon="2.01146">
        <ele>354.38</ele>
        <time>2011-07-20T09:48:03Z</time>
      </trkpt>
      <trkpt lat="43.10911" lon="2.01184">
        <ele>355.83</ele>
        <time>2011-07-20T09:48:18Z</time>
      </trkpt>
      <trkpt lat="43.10935" lon="2.01207">
        <ele>352.46</ele>
        <time>2011-07-20T09:48:27Z</time>
      </trkpt>
      <trkpt lat="43.10941" lon="2.01211">
        <ele>351.02</ele>
        <time>2011-07-20T09:48:28Z</time>
      </trkpt>
      <trkpt lat="43.10962" lon="2.01235">
        <ele>348.13</ele>
        <time>2011-07-20T09:48:32Z</time>
      </trkpt>
      <trkpt lat="43.10974" lon="2.01246">
        <ele>348.13</ele>
        <time>2011-07-20T09:48:34Z</time>
      </trkpt>
      <trkpt lat="43.10981" lon="2.01249">
        <ele>348.13</ele>
        <time>2011-07-20T09:48:35Z</time>
      </trkpt>
      <trkpt lat="43.10988" lon="2.0125">
        <ele>348.13</ele>
        <time>2011-07-20T09:48:36Z</time>
      </trkpt>
      <trkpt lat="43.10995" lon="2.01247">
        <ele>347.17</ele>
        <time>2011-07-20T09:48:37Z</time>
      </trkpt>
      <trkpt lat="43.11001" lon="2.01245">
        <ele>347.17</ele>
        <time>2011-07-20T09:48:38Z</time>
      </trkpt>
      <trkpt lat="43.11014" lon="2.01244">
        <ele>345.73</ele>
        <time>2011-07-20T09:48:40Z</time>
      </trkpt>
      <trkpt lat="43.11019" lon="2.01249">
        <ele>344.77</ele>
        <time>2011-07-20T09:48:41Z</time>
      </trkpt>
      <trkpt lat="43.11024" lon="2.01255">
        <ele>344.29</ele>
        <time>2011-07-20T09:48:42Z</time>
      </trkpt>
      <trkpt lat="43.11027" lon="2.01263">
        <ele>344.77</ele>
        <time>2011-07-20T09:48:43Z</time>
      </trkpt>
      <trkpt lat="43.1103" lon="2.01271">
        <ele>343.81</ele>
        <time>2011-07-20T09:48:44Z</time>
      </trkpt>
      <trkpt lat="43.11034" lon="2.0128">
        <ele>342.37</ele>
        <time>2011-07-20T09:48:45Z</time>
      </trkpt>
      <trkpt lat="43.11041" lon="2.01295">
        <ele>340.44</ele>
        <time>2011-07-20T09:48:47Z</time>
      </trkpt>
      <trkpt lat="43.11047" lon="2.01302">
        <ele>339.96</ele>
        <time>2011-07-20T09:48:48Z</time>
      </trkpt>
      <trkpt lat="43.11065" lon="2.01327">
        <ele>337.08</ele>
        <time>2011-07-20T09:48:51Z</time>
      </trkpt>
      <trkpt lat="43.11101" lon="2.0137">
        <ele>333.23</ele>
        <time>2011-07-20T09:48:56Z</time>
      </trkpt>
      <trkpt lat="43.11157" lon="2.01449">
        <ele>330.83</ele>
        <time>2011-07-20T09:49:05Z</time>
      </trkpt>
      <trkpt lat="43.11158" lon="2.01457">
        <ele>330.83</ele>
        <time>2011-07-20T09:49:06Z</time>
      </trkpt>
      <trkpt lat="43.11155" lon="2.01464">
        <ele>330.35</ele>
        <time>2011-07-20T09:49:07Z</time>
      </trkpt>
      <trkpt lat="43.1115" lon="2.0147">
        <ele>329.87</ele>
        <time>2011-07-20T09:49:08Z</time>
      </trkpt>
      <trkpt lat="43.11145" lon="2.01474">
        <ele>329.87</ele>
        <time>2011-07-20T09:49:09Z</time>
      </trkpt>
      <trkpt lat="43.11139" lon="2.01477">
        <ele>329.87</ele>
        <time>2011-07-20T09:49:10Z</time>
      </trkpt>
      <trkpt lat="43.11116" lon="2.0149">
        <ele>329.39</ele>
        <time>2011-07-20T09:49:14Z</time>
      </trkpt>
      <trkpt lat="43.11103" lon="2.01503">
        <ele>329.87</ele>
        <time>2011-07-20T09:49:17Z</time>
      </trkpt>
      <trkpt lat="43.111" lon="2.01509">
        <ele>330.35</ele>
        <time>2011-07-20T09:49:18Z</time>
      </trkpt>
      <trkpt lat="43.11077" lon="2.01548">
        <ele>333.71</ele>
        <time>2011-07-20T09:49:28Z</time>
      </trkpt>
      <trkpt lat="43.11061" lon="2.01576">
        <ele>337.08</ele>
        <time>2011-07-20T09:49:38Z</time>
      </trkpt>
      <trkpt lat="43.11059" lon="2.01578">
        <ele>337.08</ele>
        <time>2011-07-20T09:49:39Z</time>
      </trkpt>
      <trkpt lat="43.11053" lon="2.01588">
        <ele>338.52</ele>
        <time>2011-07-20T09:49:43Z</time>
      </trkpt>
      <trkpt lat="43.11013" lon="2.01619">
        <ele>340.92</ele>
        <time>2011-07-20T09:50:00Z</time>
      </trkpt>
      <trkpt lat="43.10993" lon="2.01666">
        <ele>342.37</ele>
        <time>2011-07-20T09:50:16Z</time>
      </trkpt>
      <trkpt lat="43.10985" lon="2.01693">
        <ele>345.73</ele>
        <time>2011-07-20T09:50:25Z</time>
      </trkpt>
      <trkpt lat="43.10984" lon="2.01695">
        <ele>345.73</ele>
        <time>2011-07-20T09:50:26Z</time>
      </trkpt>
      <trkpt lat="43.10984" lon="2.01697">
        <ele>345.25</ele>
        <time>2011-07-20T09:50:27Z</time>
      </trkpt>
      <trkpt lat="43.10985" lon="2.01701">
        <ele>345.25</ele>
        <time>2011-07-20T09:50:29Z</time>
      </trkpt>
      <trkpt lat="43.10985" lon="2.01704">
        <ele>345.73</ele>
        <time>2011-07-20T09:50:30Z</time>
      </trkpt>
      <trkpt lat="43.10985" lon="2.01706">
        <ele>345.25</ele>
        <time>2011-07-20T09:50:31Z</time>
      </trkpt>
      <trkpt lat="43.10983" lon="2.01708">
        <ele>345.73</ele>
        <time>2011-07-20T09:50:33Z</time>
      </trkpt>
      <trkpt lat="43.10979" lon="2.01719">
        <ele>345.25</ele>
        <time>2011-07-20T09:50:41Z</time>
      </trkpt>
      <trkpt lat="43.10979" lon="2.01721">
        <ele>344.77</ele>
        <time>2011-07-20T09:50:42Z</time>
      </trkpt>
      <trkpt lat="43.1098" lon="2.01724">
        <ele>345.25</ele>
        <time>2011-07-20T09:50:43Z</time>
      </trkpt>
      <trkpt lat="43.10979" lon="2.01726">
        <ele>345.25</ele>
        <time>2011-07-20T09:50:44Z</time>
      </trkpt>
      <trkpt lat="43.10979" lon="2.01729">
        <ele>345.25</ele>
        <time>2011-07-20T09:50:45Z</time>
      </trkpt>
      <trkpt lat="43.1098" lon="2.01755">
        <ele>345.73</ele>
        <time>2011-07-20T09:50:59Z</time>
      </trkpt>
      <trkpt lat="43.10979" lon="2.01759">
        <ele>345.73</ele>
        <time>2011-07-20T09:51:01Z</time>
      </trkpt>
      <trkpt lat="43.10975" lon="2.01806">
        <ele>346.69</ele>
        <time>2011-07-20T09:51:14Z</time>
      </trkpt>
      <trkpt lat="43.10967" lon="2.01866">
        <ele>348.13</ele>
        <time>2011-07-20T09:51:30Z</time>
      </trkpt>
      <trkpt lat="43.10965" lon="2.01919">
        <ele>346.69</ele>
        <time>2011-07-20T09:51:40Z</time>
      </trkpt>
      <trkpt lat="43.1095" lon="2.01966">
        <ele>347.17</ele>
        <time>2011-07-20T09:51:51Z</time>
      </trkpt>
      <trkpt lat="43.10948" lon="2.01976">
        <ele>346.69</ele>
        <time>2011-07-20T09:51:53Z</time>
      </trkpt>
      <trkpt lat="43.10933" lon="2.02019">
        <ele>345.25</ele>
        <time>2011-07-20T09:52:02Z</time>
      </trkpt>
      <trkpt lat="43.10925" lon="2.02028">
        <ele>344.77</ele>
        <time>2011-07-20T09:52:05Z</time>
      </trkpt>
      <trkpt lat="43.10922" lon="2.02027">
        <ele>344.29</ele>
        <time>2011-07-20T09:52:06Z</time>
      </trkpt>
      <trkpt lat="43.1092" lon="2.02026">
        <ele>344.29</ele>
        <time>2011-07-20T09:52:07Z</time>
      </trkpt>
      <trkpt lat="43.10911" lon="2.02025">
        <ele>343.33</ele>
        <time>2011-07-20T09:52:10Z</time>
      </trkpt>
      <trkpt lat="43.10907" lon="2.02025">
        <ele>342.85</ele>
        <time>2011-07-20T09:52:11Z</time>
      </trkpt>
      <trkpt lat="43.10905" lon="2.02028">
        <ele>342.37</ele>
        <time>2011-07-20T09:52:12Z</time>
      </trkpt>
      <trkpt lat="43.10903" lon="2.02032">
        <ele>342.37</ele>
        <time>2011-07-20T09:52:13Z</time>
      </trkpt>
      <trkpt lat="43.10901" lon="2.02037">
        <ele>340.92</ele>
        <time>2011-07-20T09:52:14Z</time>
      </trkpt>
      <trkpt lat="43.10899" lon="2.02043">
        <ele>340.92</ele>
        <time>2011-07-20T09:52:15Z</time>
      </trkpt>
      <trkpt lat="43.10898" lon="2.02046">
        <ele>339.96</ele>
        <time>2011-07-20T09:52:16Z</time>
      </trkpt>
      <trkpt lat="43.10897" lon="2.02049">
        <ele>339.96</ele>
        <time>2011-07-20T09:52:17Z</time>
      </trkpt>
      <trkpt lat="43.10899" lon="2.02051">
        <ele>339.96</ele>
        <time>2011-07-20T09:52:18Z</time>
      </trkpt>
      <trkpt lat="43.10901" lon="2.02052">
        <ele>339.48</ele>
        <time>2011-07-20T09:52:19Z</time>
      </trkpt>
      <trkpt lat="43.10903" lon="2.02054">
        <ele>339.48</ele>
        <time>2011-07-20T09:52:20Z</time>
      </trkpt>
      <trkpt lat="43.10904" lon="2.02053">
        <ele>339</ele>
        <time>2011-07-20T09:52:21Z</time>
      </trkpt>
      <trkpt lat="43.10906" lon="2.02054">
        <ele>339</ele>
        <time>2011-07-20T09:52:22Z</time>
      </trkpt>
      <trkpt lat="43.10907" lon="2.02056">
        <ele>339.48</ele>
        <time>2011-07-20T09:52:23Z</time>
      </trkpt>
      <trkpt lat="43.10909" lon="2.02059">
        <ele>339</ele>
        <time>2011-07-20T09:52:24Z</time>
      </trkpt>
      <trkpt lat="43.1091" lon="2.0206">
        <ele>339</ele>
        <time>2011-07-20T09:52:25Z</time>
      </trkpt>
      <trkpt lat="43.10912" lon="2.02061">
        <ele>339</ele>
        <time>2011-07-20T09:52:26Z</time>
      </trkpt>
      <trkpt lat="43.10915" lon="2.02061">
        <ele>339.48</ele>
        <time>2011-07-20T09:52:27Z</time>
      </trkpt>
      <trkpt lat="43.10916" lon="2.0206">
        <ele>338.52</ele>
        <time>2011-07-20T09:52:28Z</time>
      </trkpt>
      <trkpt lat="43.10918" lon="2.02061">
        <ele>339</ele>
        <time>2011-07-20T09:52:29Z</time>
      </trkpt>
      <trkpt lat="43.1092" lon="2.02062">
        <ele>339</ele>
        <time>2011-07-20T09:52:30Z</time>
      </trkpt>
      <trkpt lat="43.10922" lon="2.02065">
        <ele>338.52</ele>
        <time>2011-07-20T09:52:31Z</time>
      </trkpt>
      <trkpt lat="43.10925" lon="2.02068">
        <ele>338.04</ele>
        <time>2011-07-20T09:52:33Z</time>
      </trkpt>
      <trkpt lat="43.10926" lon="2.02068">
        <ele>338.52</ele>
        <time>2011-07-20T09:52:34Z</time>
      </trkpt>
      <trkpt lat="43.10926" lon="2.02066">
        <ele>338.52</ele>
        <time>2011-07-20T09:52:35Z</time>
      </trkpt>
      <trkpt lat="43.10924" lon="2.02065">
        <ele>338.52</ele>
        <time>2011-07-20T09:52:36Z</time>
      </trkpt>
      <trkpt lat="43.10922" lon="2.02064">
        <ele>338.52</ele>
        <time>2011-07-20T09:52:37Z</time>
      </trkpt>
      <trkpt lat="43.10896" lon="2.02045">
        <ele>338.52</ele>
        <time>2011-07-20T09:52:52Z</time>
      </trkpt>
      <trkpt lat="43.1089" lon="2.02043">
        <ele>337.08</ele>
        <time>2011-07-20T09:52:58Z</time>
      </trkpt>
      <trkpt lat="43.10888" lon="2.02042">
        <ele>336.12</ele>
        <time>2011-07-20T09:52:59Z</time>
      </trkpt>
      <trkpt lat="43.10886" lon="2.02042">
        <ele>336.12</ele>
        <time>2011-07-20T09:53:00Z</time>
      </trkpt>
      <trkpt lat="43.10867" lon="2.02037">
        <ele>333.23</ele>
        <time>2011-07-20T09:53:04Z</time>
      </trkpt>
      <trkpt lat="43.10861" lon="2.02034">
        <ele>333.23</ele>
        <time>2011-07-20T09:53:05Z</time>
      </trkpt>
      <trkpt lat="43.10833" lon="2.02021">
        <ele>330.35</ele>
        <time>2011-07-20T09:53:13Z</time>
      </trkpt>
      <trkpt lat="43.10831" lon="2.02021">
        <ele>330.83</ele>
        <time>2011-07-20T09:53:15Z</time>
      </trkpt>
      <trkpt lat="43.10826" lon="2.02021">
        <ele>330.83</ele>
        <time>2011-07-20T09:53:18Z</time>
      </trkpt>
      <trkpt lat="43.10795" lon="2.02049">
        <ele>331.31</ele>
        <time>2011-07-20T09:53:30Z</time>
      </trkpt>
      <trkpt lat="43.10768" lon="2.02074">
        <ele>333.23</ele>
        <time>2011-07-20T09:53:41Z</time>
      </trkpt>
      <trkpt lat="43.1075" lon="2.02082">
        <ele>334.2</ele>
        <time>2011-07-20T09:53:47Z</time>
      </trkpt>
      <trkpt lat="43.1073" lon="2.02136">
        <ele>332.75</ele>
        <time>2011-07-20T09:53:59Z</time>
      </trkpt>
      <trkpt lat="43.107" lon="2.02223">
        <ele>329.87</ele>
        <time>2011-07-20T09:54:13Z</time>
      </trkpt>
      <trkpt lat="43.10697" lon="2.0223">
        <ele>329.39</ele>
        <time>2011-07-20T09:54:14Z</time>
      </trkpt>
      <trkpt lat="43.10691" lon="2.02244">
        <ele>328.91</ele>
        <time>2011-07-20T09:54:16Z</time>
      </trkpt>
      <trkpt lat="43.1068" lon="2.0227">
        <ele>328.43</ele>
        <time>2011-07-20T09:54:20Z</time>
      </trkpt>
      <trkpt lat="43.10677" lon="2.02275">
        <ele>327.95</ele>
        <time>2011-07-20T09:54:21Z</time>
      </trkpt>
      <trkpt lat="43.10658" lon="2.02305">
        <ele>327.47</ele>
        <time>2011-07-20T09:54:26Z</time>
      </trkpt>
      <trkpt lat="43.10655" lon="2.02311">
        <ele>327.47</ele>
        <time>2011-07-20T09:54:27Z</time>
      </trkpt>
      <trkpt lat="43.10628" lon="2.02369">
        <ele>326.5</ele>
        <time>2011-07-20T09:54:35Z</time>
      </trkpt>
      <trkpt lat="43.10623" lon="2.02375">
        <ele>326.5</ele>
        <time>2011-07-20T09:54:36Z</time>
      </trkpt>
      <trkpt lat="43.10602" lon="2.02397">
        <ele>324.1</ele>
        <time>2011-07-20T09:54:40Z</time>
      </trkpt>
      <trkpt lat="43.10597" lon="2.02406">
        <ele>324.1</ele>
        <time>2011-07-20T09:54:41Z</time>
      </trkpt>
      <trkpt lat="43.10594" lon="2.02414">
        <ele>323.14</ele>
        <time>2011-07-20T09:54:42Z</time>
      </trkpt>
      <trkpt lat="43.10592" lon="2.02423">
        <ele>322.18</ele>
        <time>2011-07-20T09:54:43Z</time>
      </trkpt>
      <trkpt lat="43.1059" lon="2.02433">
        <ele>322.18</ele>
        <time>2011-07-20T09:54:44Z</time>
      </trkpt>
      <trkpt lat="43.10588" lon="2.02443">
        <ele>322.18</ele>
        <time>2011-07-20T09:54:45Z</time>
      </trkpt>
      <trkpt lat="43.1058" lon="2.02469">
        <ele>322.18</ele>
        <time>2011-07-20T09:54:48Z</time>
      </trkpt>
      <trkpt lat="43.10575" lon="2.02474">
        <ele>322.18</ele>
        <time>2011-07-20T09:54:49Z</time>
      </trkpt>
      <trkpt lat="43.1057" lon="2.02478">
        <ele>322.66</ele>
        <time>2011-07-20T09:54:50Z</time>
      </trkpt>
      <trkpt lat="43.10564" lon="2.02481">
        <ele>322.66</ele>
        <time>2011-07-20T09:54:51Z</time>
      </trkpt>
      <trkpt lat="43.1056" lon="2.02481">
        <ele>323.62</ele>
        <time>2011-07-20T09:54:52Z</time>
      </trkpt>
      <trkpt lat="43.10556" lon="2.02482">
        <ele>324.1</ele>
        <time>2011-07-20T09:54:53Z</time>
      </trkpt>
      <trkpt lat="43.10531" lon="2.02484">
        <ele>326.99</ele>
        <time>2011-07-20T09:55:04Z</time>
      </trkpt>
      <trkpt lat="43.10496" lon="2.02483">
        <ele>327.95</ele>
        <time>2011-07-20T09:55:20Z</time>
      </trkpt>
      <trkpt lat="43.10468" lon="2.0248">
        <ele>326.99</ele>
        <time>2011-07-20T09:55:30Z</time>
      </trkpt>
      <trkpt lat="43.10463" lon="2.0248">
        <ele>326.5</ele>
        <time>2011-07-20T09:55:31Z</time>
      </trkpt>
      <trkpt lat="43.1043" lon="2.02484">
        <ele>323.14</ele>
        <time>2011-07-20T09:55:37Z</time>
      </trkpt>
      <trkpt lat="43.10424" lon="2.02487">
        <ele>323.62</ele>
        <time>2011-07-20T09:55:38Z</time>
      </trkpt>
      <trkpt lat="43.10418" lon="2.02491">
        <ele>323.14</ele>
        <time>2011-07-20T09:55:39Z</time>
      </trkpt>
      <trkpt lat="43.10366" lon="2.02547">
        <ele>322.66</ele>
        <time>2011-07-20T09:55:51Z</time>
      </trkpt>
      <trkpt lat="43.10324" lon="2.02607">
        <ele>323.14</ele>
        <time>2011-07-20T09:56:07Z</time>
      </trkpt>
      <trkpt lat="43.10286" lon="2.02689">
        <ele>323.14</ele>
        <time>2011-07-20T09:56:27Z</time>
      </trkpt>
      <trkpt lat="43.10257" lon="2.02755">
        <ele>322.18</ele>
        <time>2011-07-20T09:56:42Z</time>
      </trkpt>
      <trkpt lat="43.10233" lon="2.02802">
        <ele>321.7</ele>
        <time>2011-07-20T09:56:54Z</time>
      </trkpt>
      <trkpt lat="43.1023" lon="2.02803">
        <ele>321.22</ele>
        <time>2011-07-20T09:56:55Z</time>
      </trkpt>
      <trkpt lat="43.10227" lon="2.02801">
        <ele>321.7</ele>
        <time>2011-07-20T09:56:56Z</time>
      </trkpt>
      <trkpt lat="43.10225" lon="2.02799">
        <ele>321.22</ele>
        <time>2011-07-20T09:56:57Z</time>
      </trkpt>
      <trkpt lat="43.10222" lon="2.02796">
        <ele>321.22</ele>
        <time>2011-07-20T09:56:58Z</time>
      </trkpt>
      <trkpt lat="43.1022" lon="2.02792">
        <ele>321.22</ele>
        <time>2011-07-20T09:56:59Z</time>
      </trkpt>
      <trkpt lat="43.10188" lon="2.02752">
        <ele>322.66</ele>
        <time>2011-07-20T09:57:16Z</time>
      </trkpt>
      <trkpt lat="43.1017" lon="2.0273">
        <ele>326.02</ele>
        <time>2011-07-20T09:57:27Z</time>
      </trkpt>
      <trkpt lat="43.10156" lon="2.02716">
        <ele>328.91</ele>
        <time>2011-07-20T09:57:35Z</time>
      </trkpt>
      <trkpt lat="43.1014" lon="2.02699">
        <ele>331.79</ele>
        <time>2011-07-20T09:57:44Z</time>
      </trkpt>
      <trkpt lat="43.10129" lon="2.02689">
        <ele>332.75</ele>
        <time>2011-07-20T09:57:52Z</time>
      </trkpt>
      <trkpt lat="43.10128" lon="2.02689">
        <ele>333.23</ele>
        <time>2011-07-20T09:57:53Z</time>
      </trkpt>
      <trkpt lat="43.10116" lon="2.02677">
        <ele>333.71</ele>
        <time>2011-07-20T09:58:07Z</time>
      </trkpt>
      <trkpt lat="43.10115" lon="2.02676">
        <ele>334.2</ele>
        <time>2011-07-20T09:58:08Z</time>
      </trkpt>
      <trkpt lat="43.10114" lon="2.02675">
        <ele>334.2</ele>
        <time>2011-07-20T09:58:09Z</time>
      </trkpt>
      <trkpt lat="43.10113" lon="2.02674">
        <ele>333.23</ele>
        <time>2011-07-20T09:58:10Z</time>
      </trkpt>
      <trkpt lat="43.10112" lon="2.02674">
        <ele>333.23</ele>
        <time>2011-07-20T09:58:11Z</time>
      </trkpt>
      <trkpt lat="43.10111" lon="2.02673">
        <ele>333.71</ele>
        <time>2011-07-20T09:58:12Z</time>
      </trkpt>
      <trkpt lat="43.10107" lon="2.02669">
        <ele>333.71</ele>
        <time>2011-07-20T09:58:16Z</time>
      </trkpt>
      <trkpt lat="43.10081" lon="2.0265">
        <ele>333.71</ele>
        <time>2011-07-20T09:58:34Z</time>
      </trkpt>
      <trkpt lat="43.10063" lon="2.02646">
        <ele>335.16</ele>
        <time>2011-07-20T09:58:44Z</time>
      </trkpt>
      <trkpt lat="43.10063" lon="2.02648">
        <ele>335.16</ele>
        <time>2011-07-20T09:58:45Z</time>
      </trkpt>
      <trkpt lat="43.10059" lon="2.02714">
        <ele>339</ele>
        <time>2011-07-20T09:59:07Z</time>
      </trkpt>
      <trkpt lat="43.10053" lon="2.02803">
        <ele>340.92</ele>
        <time>2011-07-20T09:59:34Z</time>
      </trkpt>
      <trkpt lat="43.10052" lon="2.02843">
        <ele>343.81</ele>
        <time>2011-07-20T09:59:47Z</time>
      </trkpt>
      <trkpt lat="43.1005" lon="2.02873">
        <ele>345.25</ele>
        <time>2011-07-20T10:00:00Z</time>
      </trkpt>
      <trkpt lat="43.10049" lon="2.02889">
        <ele>345.25</ele>
        <time>2011-07-20T10:00:15Z</time>
      </trkpt>
      <trkpt lat="43.10047" lon="2.02887">
        <ele>344.29</ele>
        <time>2011-07-20T10:00:40Z</time>
      </trkpt>
      <trkpt lat="43.10048" lon="2.02887">
        <ele>344.77</ele>
        <time>2011-07-20T10:01:08Z</time>
      </trkpt>
      <trkpt lat="43.10049" lon="2.02894">
        <ele>344.29</ele>
        <time>2011-07-20T10:01:13Z</time>
      </trkpt>
      <trkpt lat="43.10043" lon="2.02936">
        <ele>343.33</ele>
        <time>2011-07-20T10:01:24Z</time>
      </trkpt>
      <trkpt lat="43.10037" lon="2.02975">
        <ele>339.48</ele>
        <time>2011-07-20T10:01:29Z</time>
      </trkpt>
      <trkpt lat="43.10026" lon="2.03018">
        <ele>335.64</ele>
        <time>2011-07-20T10:01:33Z</time>
      </trkpt>
      <trkpt lat="43.10002" lon="2.03074">
        <ele>332.27</ele>
        <time>2011-07-20T10:01:38Z</time>
      </trkpt>
      <trkpt lat="43.09986" lon="2.03105">
        <ele>330.83</ele>
        <time>2011-07-20T10:01:41Z</time>
      </trkpt>
      <trkpt lat="43.09972" lon="2.03136">
        <ele>329.39</ele>
        <time>2011-07-20T10:01:44Z</time>
      </trkpt>
      <trkpt lat="43.09952" lon="2.03173">
        <ele>328.91</ele>
        <time>2011-07-20T10:01:49Z</time>
      </trkpt>
      <trkpt lat="43.09949" lon="2.03177">
        <ele>329.39</ele>
        <time>2011-07-20T10:01:50Z</time>
      </trkpt>
      <trkpt lat="43.09945" lon="2.03178">
        <ele>328.91</ele>
        <time>2011-07-20T10:01:51Z</time>
      </trkpt>
      <trkpt lat="43.09941" lon="2.03177">
        <ele>329.39</ele>
        <time>2011-07-20T10:01:52Z</time>
      </trkpt>
      <trkpt lat="43.09937" lon="2.03175">
        <ele>328.91</ele>
        <time>2011-07-20T10:01:53Z</time>
      </trkpt>
      <trkpt lat="43.0991" lon="2.03155">
        <ele>326.5</ele>
        <time>2011-07-20T10:02:01Z</time>
      </trkpt>
      <trkpt lat="43.0987" lon="2.0313">
        <ele>323.14</ele>
        <time>2011-07-20T10:02:09Z</time>
      </trkpt>
      <trkpt lat="43.09829" lon="2.03105">
        <ele>319.3</ele>
        <time>2011-07-20T10:02:17Z</time>
      </trkpt>
      <trkpt lat="43.0978" lon="2.03075">
        <ele>320.26</ele>
        <time>2011-07-20T10:02:28Z</time>
      </trkpt>
      <trkpt lat="43.0976" lon="2.03066">
        <ele>323.62</ele>
        <time>2011-07-20T10:02:39Z</time>
      </trkpt>
      <trkpt lat="43.09756" lon="2.03063">
        <ele>325.06</ele>
        <time>2011-07-20T10:02:42Z</time>
      </trkpt>
      <trkpt lat="43.09755" lon="2.03063">
        <ele>325.06</ele>
        <time>2011-07-20T10:02:43Z</time>
      </trkpt>
      <trkpt lat="43.09745" lon="2.03058">
        <ele>328.43</ele>
        <time>2011-07-20T10:02:51Z</time>
      </trkpt>
      <trkpt lat="43.0974" lon="2.03059">
        <ele>329.39</ele>
        <time>2011-07-20T10:02:59Z</time>
      </trkpt>
      <trkpt lat="43.09739" lon="2.03061">
        <ele>330.35</ele>
        <time>2011-07-20T10:03:00Z</time>
      </trkpt>
      <trkpt lat="43.09738" lon="2.03062">
        <ele>330.83</ele>
        <time>2011-07-20T10:03:01Z</time>
      </trkpt>
      <trkpt lat="43.09733" lon="2.03066">
        <ele>329.39</ele>
        <time>2011-07-20T10:03:05Z</time>
      </trkpt>
      <trkpt lat="43.09718" lon="2.03106">
        <ele>329.87</ele>
        <time>2011-07-20T10:03:21Z</time>
      </trkpt>
      <trkpt lat="43.09715" lon="2.03111">
        <ele>330.35</ele>
        <time>2011-07-20T10:03:24Z</time>
      </trkpt>
      <trkpt lat="43.09715" lon="2.03112">
        <ele>330.35</ele>
        <time>2011-07-20T10:03:25Z</time>
      </trkpt>
      <trkpt lat="43.09715" lon="2.03114">
        <ele>329.87</ele>
        <time>2011-07-20T10:03:26Z</time>
      </trkpt>
      <trkpt lat="43.09714" lon="2.03119">
        <ele>329.87</ele>
        <time>2011-07-20T10:03:30Z</time>
      </trkpt>
      <trkpt lat="43.09713" lon="2.03123">
        <ele>329.39</ele>
        <time>2011-07-20T10:03:32Z</time>
      </trkpt>
      <trkpt lat="43.097" lon="2.03173">
        <ele>328.43</ele>
        <time>2011-07-20T10:03:46Z</time>
      </trkpt>
      <trkpt lat="43.09697" lon="2.03175">
        <ele>328.43</ele>
        <time>2011-07-20T10:03:47Z</time>
      </trkpt>
      <trkpt lat="43.09696" lon="2.03175">
        <ele>327.95</ele>
        <time>2011-07-20T10:03:48Z</time>
      </trkpt>
      <trkpt lat="43.09693" lon="2.03173">
        <ele>328.43</ele>
        <time>2011-07-20T10:03:49Z</time>
      </trkpt>
      <trkpt lat="43.09692" lon="2.0317">
        <ele>328.43</ele>
        <time>2011-07-20T10:03:50Z</time>
      </trkpt>
      <trkpt lat="43.0969" lon="2.03166">
        <ele>328.91</ele>
        <time>2011-07-20T10:03:51Z</time>
      </trkpt>
      <trkpt lat="43.0969" lon="2.03162">
        <ele>327.95</ele>
        <time>2011-07-20T10:03:52Z</time>
      </trkpt>
      <trkpt lat="43.09693" lon="2.03159">
        <ele>327.95</ele>
        <time>2011-07-20T10:03:53Z</time>
      </trkpt>
      <trkpt lat="43.09694" lon="2.03156">
        <ele>327.95</ele>
        <time>2011-07-20T10:03:54Z</time>
      </trkpt>
      <trkpt lat="43.09686" lon="2.03129">
        <ele>326.5</ele>
        <time>2011-07-20T10:04:02Z</time>
      </trkpt>
      <trkpt lat="43.09681" lon="2.03126">
        <ele>325.54</ele>
        <time>2011-07-20T10:04:03Z</time>
      </trkpt>
      <trkpt lat="43.09675" lon="2.03126">
        <ele>324.1</ele>
        <time>2011-07-20T10:04:04Z</time>
      </trkpt>
      <trkpt lat="43.09668" lon="2.03127">
        <ele>323.14</ele>
        <time>2011-07-20T10:04:05Z</time>
      </trkpt>
      <trkpt lat="43.09662" lon="2.03129">
        <ele>322.18</ele>
        <time>2011-07-20T10:04:06Z</time>
      </trkpt>
      <trkpt lat="43.09658" lon="2.03131">
        <ele>321.22</ele>
        <time>2011-07-20T10:04:07Z</time>
      </trkpt>
      <trkpt lat="43.09649" lon="2.03131">
        <ele>320.26</ele>
        <time>2011-07-20T10:04:09Z</time>
      </trkpt>
      <trkpt lat="43.09645" lon="2.03127">
        <ele>318.81</ele>
        <time>2011-07-20T10:04:10Z</time>
      </trkpt>
      <trkpt lat="43.0964" lon="2.03121">
        <ele>318.81</ele>
        <time>2011-07-20T10:04:11Z</time>
      </trkpt>
      <trkpt lat="43.09627" lon="2.03113">
        <ele>316.89</ele>
        <time>2011-07-20T10:04:13Z</time>
      </trkpt>
      <trkpt lat="43.09621" lon="2.03111">
        <ele>316.89</ele>
        <time>2011-07-20T10:04:14Z</time>
      </trkpt>
      <trkpt lat="43.09612" lon="2.03108">
        <ele>315.93</ele>
        <time>2011-07-20T10:04:20Z</time>
      </trkpt>
      <trkpt lat="43.09594" lon="2.03098">
        <ele>315.45</ele>
        <time>2011-07-20T10:04:41Z</time>
      </trkpt>
      <trkpt lat="43.0956" lon="2.03098">
        <ele>315.93</ele>
        <time>2011-07-20T10:04:55Z</time>
      </trkpt>
      <trkpt lat="43.09556" lon="2.03101">
        <ele>315.93</ele>
        <time>2011-07-20T10:04:57Z</time>
      </trkpt>
      <trkpt lat="43.09548" lon="2.03106">
        <ele>315.45</ele>
        <time>2011-07-20T10:05:02Z</time>
      </trkpt>
      <trkpt lat="43.09539" lon="2.03106">
        <ele>315.45</ele>
        <time>2011-07-20T10:05:07Z</time>
      </trkpt>
      <trkpt lat="43.0953" lon="2.03112">
        <ele>315.45</ele>
        <time>2011-07-20T10:05:24Z</time>
      </trkpt>
      <trkpt lat="43.09531" lon="2.03119">
        <ele>314.97</ele>
        <time>2011-07-20T10:05:57Z</time>
      </trkpt>
      <trkpt lat="43.09529" lon="2.03119">
        <ele>315.93</ele>
        <time>2011-07-20T10:06:18Z</time>
      </trkpt>
      <trkpt lat="43.09525" lon="2.03116">
        <ele>315.45</ele>
        <time>2011-07-20T10:06:39Z</time>
      </trkpt>
      <trkpt lat="43.09521" lon="2.03121">
        <ele>315.45</ele>
        <time>2011-07-20T10:07:10Z</time>
      </trkpt>
      <trkpt lat="43.09493" lon="2.03137">
        <ele>315.93</ele>
        <time>2011-07-20T10:07:24Z</time>
      </trkpt>
      <trkpt lat="43.09477" lon="2.03162">
        <ele>314.97</ele>
        <time>2011-07-20T10:07:34Z</time>
      </trkpt>
      <trkpt lat="43.09454" lon="2.03196">
        <ele>314.49</ele>
        <time>2011-07-20T10:07:44Z</time>
      </trkpt>
      <trkpt lat="43.09443" lon="2.03204">
        <ele>315.93</ele>
        <time>2011-07-20T10:07:49Z</time>
      </trkpt>
      <trkpt lat="43.09439" lon="2.03213">
        <ele>315.45</ele>
        <time>2011-07-20T10:07:53Z</time>
      </trkpt>
      <trkpt lat="43.09419" lon="2.03246">
        <ele>316.41</ele>
        <time>2011-07-20T10:08:04Z</time>
      </trkpt>
      <trkpt lat="43.09416" lon="2.03267">
        <ele>316.41</ele>
        <time>2011-07-20T10:08:08Z</time>
      </trkpt>
      <trkpt lat="43.09407" lon="2.03313">
        <ele>315.45</ele>
        <time>2011-07-20T10:08:20Z</time>
      </trkpt>
      <trkpt lat="43.09397" lon="2.03336">
        <ele>315.93</ele>
        <time>2011-07-20T10:08:26Z</time>
      </trkpt>
      <trkpt lat="43.0939" lon="2.03372">
        <ele>315.45</ele>
        <time>2011-07-20T10:08:33Z</time>
      </trkpt>
      <trkpt lat="43.09381" lon="2.03381">
        <ele>316.89</ele>
        <time>2011-07-20T10:08:38Z</time>
      </trkpt>
      <trkpt lat="43.09374" lon="2.03387">
        <ele>316.89</ele>
        <time>2011-07-20T10:08:50Z</time>
      </trkpt>
      <trkpt lat="43.09372" lon="2.03389">
        <ele>316.89</ele>
        <time>2011-07-20T10:09:14Z</time>
      </trkpt>
      <trkpt lat="43.09374" lon="2.03393">
        <ele>315.93</ele>
        <time>2011-07-20T10:09:16Z</time>
      </trkpt>
      <trkpt lat="43.09385" lon="2.03405">
        <ele>315.45</ele>
        <time>2011-07-20T10:09:20Z</time>
      </trkpt>
      <trkpt lat="43.09391" lon="2.03406">
        <ele>314.97</ele>
        <time>2011-07-20T10:09:22Z</time>
      </trkpt>
      <trkpt lat="43.09413" lon="2.03434">
        <ele>315.45</ele>
        <time>2011-07-20T10:09:34Z</time>
      </trkpt>
      <trkpt lat="43.09422" lon="2.03481">
        <ele>316.41</ele>
        <time>2011-07-20T10:09:47Z</time>
      </trkpt>
      <trkpt lat="43.09425" lon="2.03501">
        <ele>315.45</ele>
        <time>2011-07-20T10:09:52Z</time>
      </trkpt>
      <trkpt lat="43.09412" lon="2.03552">
        <ele>314.01</ele>
        <time>2011-07-20T10:10:04Z</time>
      </trkpt>
      <trkpt lat="43.09436" lon="2.03577">
        <ele>314.49</ele>
        <time>2011-07-20T10:10:15Z</time>
      </trkpt>
      <trkpt lat="43.09456" lon="2.03625">
        <ele>314.49</ele>
        <time>2011-07-20T10:10:27Z</time>
      </trkpt>
      <trkpt lat="43.09477" lon="2.03637">
        <ele>314.49</ele>
        <time>2011-07-20T10:10:35Z</time>
      </trkpt>
      <trkpt lat="43.0952" lon="2.03649">
        <ele>314.97</ele>
        <time>2011-07-20T10:10:49Z</time>
      </trkpt>
      <trkpt lat="43.09539" lon="2.03659">
        <ele>315.45</ele>
        <time>2011-07-20T10:10:56Z</time>
      </trkpt>
      <trkpt lat="43.09544" lon="2.03658">
        <ele>313.53</ele>
        <time>2011-07-20T10:10:57Z</time>
      </trkpt>
      <trkpt lat="43.09549" lon="2.03654">
        <ele>313.05</ele>
        <time>2011-07-20T10:10:58Z</time>
      </trkpt>
      <trkpt lat="43.09555" lon="2.03647">
        <ele>311.12</ele>
        <time>2011-07-20T10:10:59Z</time>
      </trkpt>
      <trkpt lat="43.0956" lon="2.03639">
        <ele>311.12</ele>
        <time>2011-07-20T10:11:00Z</time>
      </trkpt>
      <trkpt lat="43.09571" lon="2.03626">
        <ele>308.24</ele>
        <time>2011-07-20T10:11:02Z</time>
      </trkpt>
      <trkpt lat="43.09575" lon="2.03622">
        <ele>308.24</ele>
        <time>2011-07-20T10:11:03Z</time>
      </trkpt>
      <trkpt lat="43.09577" lon="2.03619">
        <ele>308.72</ele>
        <time>2011-07-20T10:11:04Z</time>
      </trkpt>
      <trkpt lat="43.09576" lon="2.03618">
        <ele>308.24</ele>
        <time>2011-07-20T10:11:18Z</time>
      </trkpt>
      <trkpt lat="43.09576" lon="2.03618">
        <ele>308.72</ele>
        <time>2011-07-20T10:12:15Z</time>
      </trkpt>
      <trkpt lat="43.09576" lon="2.03614">
        <ele>308.24</ele>
        <time>2011-07-20T10:12:18Z</time>
      </trkpt>
      <trkpt lat="43.09576" lon="2.03614">
        <ele>308.72</ele>
        <time>2011-07-20T10:13:19Z</time>
      </trkpt>
    </trkseg>
  </trk>
</gpx>